<?xml version="1.0" encoding="utf-8"?>
<gpx xmlns:xsi="http://www.w3.org/2001/XMLSchema-instance" xmlns:xsd="http://www.w3.org/2001/XMLSchema" version="1.1" creator="Shapelink.com" xmlns="http://www.topografix.com/GPX/1/1" xmlns:gpxtpx="http://www.garmin.com/xmlschemas/TrackPointExtension/v1">
  <metadata>
    <name>Rullskidor 10.44 km, 2019-01-11</name>
    <desc></desc>
    <author><name>Stefan Östlund</name></author> 
    <time>2019-01-11T14:34:16Z</time>
  </metadata>
  <trk>
    <name>Rullskidor 10.44 km, 2019-01-11</name>
    <trkseg>
      <trkpt lat="36.762176132009" lon="-3.860710180796">
        <ele>105.2</ele>
        <time>2019-01-11T14:34:16Z</time>
      </trkpt>
      <trkpt lat="36.762173282163" lon="-3.8606947581">
        <ele>105</ele>
        <time>2019-01-11T14:34:17Z</time>
      </trkpt>
      <trkpt lat="36.762167582471" lon="-3.860651842772">
        <ele>105</ele>
        <time>2019-01-11T14:34:19Z</time>
      </trkpt>
      <trkpt lat="36.762234050938" lon="-3.860456544502">
        <ele>105</ele>
        <time>2019-01-11T14:34:25Z</time>
      </trkpt>
      <trkpt lat="36.762246959064" lon="-3.860321512093">
        <ele>106.4</ele>
        <time>2019-01-11T14:34:29Z</time>
      </trkpt>
      <trkpt lat="36.762256011516" lon="-3.860223779139">
        <ele>107.6</ele>
        <time>2019-01-11T14:34:32Z</time>
      </trkpt>
      <trkpt lat="36.762257101163" lon="-3.860024373738">
        <ele>108</ele>
        <time>2019-01-11T14:34:38Z</time>
      </trkpt>
      <trkpt lat="36.762269841651" lon="-3.859899399609">
        <ele>108.6</ele>
        <time>2019-01-11T14:34:42Z</time>
      </trkpt>
      <trkpt lat="36.762305213269" lon="-3.859706448271">
        <ele>109.4</ele>
        <time>2019-01-11T14:34:48Z</time>
      </trkpt>
      <trkpt lat="36.762304542717" lon="-3.859642997288">
        <ele>109.6</ele>
        <time>2019-01-11T14:34:50Z</time>
      </trkpt>
      <trkpt lat="36.762307476382" lon="-3.859465468646">
        <ele>110.4</ele>
        <time>2019-01-11T14:34:56Z</time>
      </trkpt>
      <trkpt lat="36.76233278972" lon="-3.859371675185">
        <ele>110.8</ele>
        <time>2019-01-11T14:34:59Z</time>
      </trkpt>
      <trkpt lat="36.76234787714" lon="-3.859309397668">
        <ele>111.2</ele>
        <time>2019-01-11T14:35:01Z</time>
      </trkpt>
      <trkpt lat="36.76236128818" lon="-3.859179813494">
        <ele>111.8</ele>
        <time>2019-01-11T14:35:05Z</time>
      </trkpt>
      <trkpt lat="36.762347793321" lon="-3.859008236001">
        <ele>112.6</ele>
        <time>2019-01-11T14:35:11Z</time>
      </trkpt>
      <trkpt lat="36.762338070317" lon="-3.85892533901">
        <ele>112.8</ele>
        <time>2019-01-11T14:35:14Z</time>
      </trkpt>
      <trkpt lat="36.762326168019" lon="-3.858791396248">
        <ele>113.6</ele>
        <time>2019-01-11T14:35:19Z</time>
      </trkpt>
      <trkpt lat="36.762335136652" lon="-3.858748061825">
        <ele>113.8</ele>
        <time>2019-01-11T14:35:22Z</time>
      </trkpt>
      <trkpt lat="36.762348631511" lon="-3.858766250548">
        <ele>113.8</ele>
        <time>2019-01-11T14:35:24Z</time>
      </trkpt>
      <trkpt lat="36.762348044778" lon="-3.858790138963">
        <ele>114</ele>
        <time>2019-01-11T14:35:25Z</time>
      </trkpt>
      <trkpt lat="36.762348296235" lon="-3.858915616006">
        <ele>112.6</ele>
        <time>2019-01-11T14:35:29Z</time>
      </trkpt>
      <trkpt lat="36.762329772236" lon="-3.859146034437">
        <ele>112</ele>
        <time>2019-01-11T14:35:35Z</time>
      </trkpt>
      <trkpt lat="36.762325748924" lon="-3.859239995536">
        <ele>111.4</ele>
        <time>2019-01-11T14:35:37Z</time>
      </trkpt>
      <trkpt lat="36.762302363423" lon="-3.859533697312">
        <ele>110</ele>
        <time>2019-01-11T14:35:43Z</time>
      </trkpt>
      <trkpt lat="36.762281408673" lon="-3.859776772412">
        <ele>108.8</ele>
        <time>2019-01-11T14:35:48Z</time>
      </trkpt>
      <trkpt lat="36.762258609905" lon="-3.860072402025">
        <ele>107.6</ele>
        <time>2019-01-11T14:35:54Z</time>
      </trkpt>
      <trkpt lat="36.76223975063" lon="-3.860322098826">
        <ele>106.4</ele>
        <time>2019-01-11T14:35:59Z</time>
      </trkpt>
      <trkpt lat="36.762234972947" lon="-3.860375910624">
        <ele>105.4</ele>
        <time>2019-01-11T14:36:00Z</time>
      </trkpt>
      <trkpt lat="36.762228183608" lon="-3.860487976627">
        <ele>103.4</ele>
        <time>2019-01-11T14:36:02Z</time>
      </trkpt>
      <trkpt lat="36.762218544423" lon="-3.860606496693">
        <ele>102.2</ele>
        <time>2019-01-11T14:36:04Z</time>
      </trkpt>
      <trkpt lat="36.762201361528" lon="-3.860879914271">
        <ele>101.4</ele>
        <time>2019-01-11T14:36:08Z</time>
      </trkpt>
      <trkpt lat="36.762190632696" lon="-3.86101243211">
        <ele>100.8</ele>
        <time>2019-01-11T14:36:10Z</time>
      </trkpt>
      <trkpt lat="36.762147046816" lon="-3.861329016473">
        <ele>100.8</ele>
        <time>2019-01-11T14:36:16Z</time>
      </trkpt>
      <trkpt lat="36.762130702111" lon="-3.861401855184">
        <ele>102</ele>
        <time>2019-01-11T14:36:18Z</time>
      </trkpt>
      <trkpt lat="36.76212827136" lon="-3.861504701097">
        <ele>103.2</ele>
        <time>2019-01-11T14:36:21Z</time>
      </trkpt>
      <trkpt lat="36.762147968825" lon="-3.861575611971">
        <ele>104</ele>
        <time>2019-01-11T14:36:24Z</time>
      </trkpt>
      <trkpt lat="36.762169510308" lon="-3.861621963878">
        <ele>104.2</ele>
        <time>2019-01-11T14:36:26Z</time>
      </trkpt>
      <trkpt lat="36.762158781476" lon="-3.861710225285">
        <ele>105</ele>
        <time>2019-01-11T14:36:30Z</time>
      </trkpt>
      <trkpt lat="36.762143861694" lon="-3.861723049592">
        <ele>105.4</ele>
        <time>2019-01-11T14:36:31Z</time>
      </trkpt>
      <trkpt lat="36.762133468138" lon="-3.861735538623">
        <ele>106.2</ele>
        <time>2019-01-11T14:36:37Z</time>
      </trkpt>
      <trkpt lat="36.762145621893" lon="-3.861735203347">
        <ele>106.2</ele>
        <time>2019-01-11T14:36:43Z</time>
      </trkpt>
      <trkpt lat="36.76216096077" lon="-3.861712404579">
        <ele>106.2</ele>
        <time>2019-01-11T14:36:46Z</time>
      </trkpt>
      <trkpt lat="36.762173449801" lon="-3.861644343551">
        <ele>104</ele>
        <time>2019-01-11T14:36:48Z</time>
      </trkpt>
      <trkpt lat="36.762169175032" lon="-3.861599332748">
        <ele>104.2</ele>
        <time>2019-01-11T14:36:49Z</time>
      </trkpt>
      <trkpt lat="36.762154674345" lon="-3.861355335639">
        <ele>101.4</ele>
        <time>2019-01-11T14:36:53Z</time>
      </trkpt>
      <trkpt lat="36.762160374037" lon="-3.861138747343">
        <ele>100</ele>
        <time>2019-01-11T14:36:56Z</time>
      </trkpt>
      <trkpt lat="36.762169426489" lon="-3.861002625287">
        <ele>98.8</ele>
        <time>2019-01-11T14:36:58Z</time>
      </trkpt>
      <trkpt lat="36.762182669891" lon="-3.860843285368">
        <ele>98.6</ele>
        <time>2019-01-11T14:37:01Z</time>
      </trkpt>
      <trkpt lat="36.762184849185" lon="-3.860709258787">
        <ele>97.8</ele>
        <time>2019-01-11T14:37:04Z</time>
      </trkpt>
      <trkpt lat="36.762229105617" lon="-3.86046928499">
        <ele>98.4</ele>
        <time>2019-01-11T14:37:10Z</time>
      </trkpt>
      <trkpt lat="36.762240085906" lon="-3.860397787383">
        <ele>99.2</ele>
        <time>2019-01-11T14:37:12Z</time>
      </trkpt>
      <trkpt lat="36.762287695098" lon="-3.860186647322">
        <ele>100.2</ele>
        <time>2019-01-11T14:37:18Z</time>
      </trkpt>
      <trkpt lat="36.762293981523" lon="-3.86014909641">
        <ele>100.4</ele>
        <time>2019-01-11T14:37:19Z</time>
      </trkpt>
      <trkpt lat="36.762286018718" lon="-3.860047591601">
        <ele>101</ele>
        <time>2019-01-11T14:37:22Z</time>
      </trkpt>
      <trkpt lat="36.762299597396" lon="-3.859922114558">
        <ele>101.4</ele>
        <time>2019-01-11T14:37:26Z</time>
      </trkpt>
      <trkpt lat="36.762289371478" lon="-3.859792530384">
        <ele>102.4</ele>
        <time>2019-01-11T14:37:30Z</time>
      </trkpt>
      <trkpt lat="36.762285599623" lon="-3.859758583689">
        <ele>102.6</ele>
        <time>2019-01-11T14:37:31Z</time>
      </trkpt>
      <trkpt lat="36.762288198012" lon="-3.859571164405">
        <ele>103.4</ele>
        <time>2019-01-11T14:37:37Z</time>
      </trkpt>
      <trkpt lat="36.762291383134" lon="-3.859511736734">
        <ele>103.6</ele>
        <time>2019-01-11T14:37:39Z</time>
      </trkpt>
      <trkpt lat="36.762307224925" lon="-3.859337644671">
        <ele>104.6</ele>
        <time>2019-01-11T14:37:45Z</time>
      </trkpt>
      <trkpt lat="36.762310829142" lon="-3.85930923003">
        <ele>104.8</ele>
        <time>2019-01-11T14:37:46Z</time>
      </trkpt>
      <trkpt lat="36.762321977069" lon="-3.85915584126">
        <ele>105.8</ele>
        <time>2019-01-11T14:37:51Z</time>
      </trkpt>
      <trkpt lat="36.762314098083" lon="-3.85899071783">
        <ele>106.2</ele>
        <time>2019-01-11T14:37:57Z</time>
      </trkpt>
      <trkpt lat="36.762304207441" lon="-3.858859289638">
        <ele>107</ele>
        <time>2019-01-11T14:38:02Z</time>
      </trkpt>
      <trkpt lat="36.762304039803" lon="-3.858787624393">
        <ele>107.2</ele>
        <time>2019-01-11T14:38:05Z</time>
      </trkpt>
      <trkpt lat="36.762311499694" lon="-3.85876189196">
        <ele>107.4</ele>
        <time>2019-01-11T14:38:07Z</time>
      </trkpt>
      <trkpt lat="36.762329688417" lon="-3.858874628515">
        <ele>107.4</ele>
        <time>2019-01-11T14:38:13Z</time>
      </trkpt>
      <trkpt lat="36.762316109739" lon="-3.859086942042">
        <ele>106</ele>
        <time>2019-01-11T14:38:19Z</time>
      </trkpt>
      <trkpt lat="36.762309488038" lon="-3.859179142942">
        <ele>105.6</ele>
        <time>2019-01-11T14:38:21Z</time>
      </trkpt>
      <trkpt lat="36.762302950156" lon="-3.859385924415">
        <ele>104.4</ele>
        <time>2019-01-11T14:38:25Z</time>
      </trkpt>
      <trkpt lat="36.762281157216" lon="-3.859667304798">
        <ele>103.2</ele>
        <time>2019-01-11T14:38:30Z</time>
      </trkpt>
      <trkpt lat="36.762253832222" lon="-3.859997886934">
        <ele>102.8</ele>
        <time>2019-01-11T14:38:35Z</time>
      </trkpt>
      <trkpt lat="36.762240672639" lon="-3.860203662579">
        <ele>101.8</ele>
        <time>2019-01-11T14:38:38Z</time>
      </trkpt>
      <trkpt lat="36.762235475861" lon="-3.860329055803">
        <ele>100.6</ele>
        <time>2019-01-11T14:38:40Z</time>
      </trkpt>
      <trkpt lat="36.762231871644" lon="-3.860389992216">
        <ele>99.2</ele>
        <time>2019-01-11T14:38:41Z</time>
      </trkpt>
      <trkpt lat="36.762214269654" lon="-3.860661901052">
        <ele>98.2</ele>
        <time>2019-01-11T14:38:46Z</time>
      </trkpt>
      <trkpt lat="36.762208569962" lon="-3.860894834053">
        <ele>98.2</ele>
        <time>2019-01-11T14:38:51Z</time>
      </trkpt>
      <trkpt lat="36.762188285764" lon="-3.861044953882">
        <ele>97.8</ele>
        <time>2019-01-11T14:38:54Z</time>
      </trkpt>
      <trkpt lat="36.762166073729" lon="-3.861198761747">
        <ele>97</ele>
        <time>2019-01-11T14:38:57Z</time>
      </trkpt>
      <trkpt lat="36.762126175885" lon="-3.86141392512">
        <ele>98</ele>
        <time>2019-01-11T14:39:03Z</time>
      </trkpt>
      <trkpt lat="36.762127684627" lon="-3.861515513748">
        <ele>99.2</ele>
        <time>2019-01-11T14:39:07Z</time>
      </trkpt>
      <trkpt lat="36.762162720969" lon="-3.86166370574">
        <ele>100.2</ele>
        <time>2019-01-11T14:39:13Z</time>
      </trkpt>
      <trkpt lat="36.762154590526" lon="-3.86168298411">
        <ele>100.2</ele>
        <time>2019-01-11T14:39:14Z</time>
      </trkpt>
      <trkpt lat="36.762153081784" lon="-3.861735538623">
        <ele>101.2</ele>
        <time>2019-01-11T14:39:20Z</time>
      </trkpt>
      <trkpt lat="36.762153836155" lon="-3.861738723745">
        <ele>101.4</ele>
        <time>2019-01-11T14:39:21Z</time>
      </trkpt>
      <trkpt lat="36.762174623267" lon="-3.861698155349">
        <ele>101.6</ele>
        <time>2019-01-11T14:39:25Z</time>
      </trkpt>
      <trkpt lat="36.762177305475" lon="-3.861661694084">
        <ele>100.2</ele>
        <time>2019-01-11T14:39:26Z</time>
      </trkpt>
      <trkpt lat="36.762174287991" lon="-3.861619700765">
        <ele>100</ele>
        <time>2019-01-11T14:39:27Z</time>
      </trkpt>
      <trkpt lat="36.762150399576" lon="-3.861459857932">
        <ele>100</ele>
        <time>2019-01-11T14:39:30Z</time>
      </trkpt>
      <trkpt lat="36.762152662689" lon="-3.861323819695">
        <ele>98.8</ele>
        <time>2019-01-11T14:39:32Z</time>
      </trkpt>
      <trkpt lat="36.762177389294" lon="-3.860938168476">
        <ele>97.6</ele>
        <time>2019-01-11T14:39:38Z</time>
      </trkpt>
      <trkpt lat="36.762180155321" lon="-3.8608204866">
        <ele>96.4</ele>
        <time>2019-01-11T14:39:41Z</time>
      </trkpt>
      <trkpt lat="36.762203792279" lon="-3.86064949584">
        <ele>97.8</ele>
        <time>2019-01-11T14:39:46Z</time>
      </trkpt>
      <trkpt lat="36.762224747029" lon="-3.860446067127">
        <ele>97.8</ele>
        <time>2019-01-11T14:39:52Z</time>
      </trkpt>
      <trkpt lat="36.762255927697" lon="-3.860268203209">
        <ele>98.6</ele>
        <time>2019-01-11T14:39:58Z</time>
      </trkpt>
      <trkpt lat="36.76226321995" lon="-3.860176337585">
        <ele>98.8</ele>
        <time>2019-01-11T14:40:01Z</time>
      </trkpt>
      <trkpt lat="36.762278726465" lon="-3.859996126735">
        <ele>99.8</ele>
        <time>2019-01-11T14:40:07Z</time>
      </trkpt>
      <trkpt lat="36.762286856908" lon="-3.859818262817">
        <ele>100.6</ele>
        <time>2019-01-11T14:40:13Z</time>
      </trkpt>
      <trkpt lat="36.762293059514" lon="-3.85976017625">
        <ele>102.6</ele>
        <time>2019-01-11T14:40:15Z</time>
      </trkpt>
      <trkpt lat="36.762301357595" lon="-3.859621455805">
        <ele>103.6</ele>
        <time>2019-01-11T14:40:20Z</time>
      </trkpt>
      <trkpt lat="36.762320635965" lon="-3.859460607144">
        <ele>103.8</ele>
        <time>2019-01-11T14:40:26Z</time>
      </trkpt>
      <trkpt lat="36.762330778064" lon="-3.859375027945">
        <ele>104.4</ele>
        <time>2019-01-11T14:40:29Z</time>
      </trkpt>
      <trkpt lat="36.762348547692" lon="-3.859210910343">
        <ele>104.6</ele>
        <time>2019-01-11T14:40:35Z</time>
      </trkpt>
      <trkpt lat="36.762339662878" lon="-3.859181489874">
        <ele>104.6</ele>
        <time>2019-01-11T14:40:36Z</time>
      </trkpt>
      <trkpt lat="36.76235039171" lon="-3.859020976489">
        <ele>105.4</ele>
        <time>2019-01-11T14:40:42Z</time>
      </trkpt>
      <trkpt lat="36.762362461646" lon="-3.858967751424">
        <ele>105.8</ele>
        <time>2019-01-11T14:40:44Z</time>
      </trkpt>
      <trkpt lat="36.76235374447" lon="-3.858940929344">
        <ele>106</ele>
        <time>2019-01-11T14:40:45Z</time>
      </trkpt>
      <trkpt lat="36.762307727839" lon="-3.858788211126">
        <ele>107.4</ele>
        <time>2019-01-11T14:40:51Z</time>
      </trkpt>
      <trkpt lat="36.762307560201" lon="-3.85879709594">
        <ele>107.4</ele>
        <time>2019-01-11T14:40:57Z</time>
      </trkpt>
      <trkpt lat="36.762317450843" lon="-3.858843531666">
        <ele>107.4</ele>
        <time>2019-01-11T14:40:59Z</time>
      </trkpt>
      <trkpt lat="36.762332454444" lon="-3.859012259313">
        <ele>106.8</ele>
        <time>2019-01-11T14:41:05Z</time>
      </trkpt>
      <trkpt lat="36.762325665105" lon="-3.8590854333">
        <ele>106</ele>
        <time>2019-01-11T14:41:07Z</time>
      </trkpt>
      <trkpt lat="36.762310829142" lon="-3.859341751802">
        <ele>105.2</ele>
        <time>2019-01-11T14:41:13Z</time>
      </trkpt>
      <trkpt lat="36.762302698699" lon="-3.859482316265">
        <ele>103.8</ele>
        <time>2019-01-11T14:41:16Z</time>
      </trkpt>
      <trkpt lat="36.762292640419" lon="-3.85962271309">
        <ele>103.6</ele>
        <time>2019-01-11T14:41:19Z</time>
      </trkpt>
      <trkpt lat="36.762289120021" lon="-3.859717093284">
        <ele>102.6</ele>
        <time>2019-01-11T14:41:21Z</time>
      </trkpt>
      <trkpt lat="36.762266153615" lon="-3.859995456183">
        <ele>101.8</ele>
        <time>2019-01-11T14:41:27Z</time>
      </trkpt>
      <trkpt lat="36.762251401471" lon="-3.860263425526">
        <ele>101.2</ele>
        <time>2019-01-11T14:41:32Z</time>
      </trkpt>
      <trkpt lat="36.762227261599" lon="-3.86058327883">
        <ele>100</ele>
        <time>2019-01-11T14:41:37Z</time>
      </trkpt>
      <trkpt lat="36.762201277709" lon="-3.861039589466">
        <ele>98.8</ele>
        <time>2019-01-11T14:41:43Z</time>
      </trkpt>
      <trkpt lat="36.762175712914" lon="-3.861360783874">
        <ele>98.6</ele>
        <time>2019-01-11T14:41:49Z</time>
      </trkpt>
      <trkpt lat="36.762168085385" lon="-3.861470335307">
        <ele>100</ele>
        <time>2019-01-11T14:41:52Z</time>
      </trkpt>
      <trkpt lat="36.762170348498" lon="-3.861559267266">
        <ele>101</ele>
        <time>2019-01-11T14:41:55Z</time>
      </trkpt>
      <trkpt lat="36.762182586072" lon="-3.861691868924">
        <ele>102.2</ele>
        <time>2019-01-11T14:42:01Z</time>
      </trkpt>
      <trkpt lat="36.762153500879" lon="-3.861748865844">
        <ele>103.2</ele>
        <time>2019-01-11T14:42:04Z</time>
      </trkpt>
      <trkpt lat="36.762161463684" lon="-3.861754481717">
        <ele>103.8</ele>
        <time>2019-01-11T14:42:10Z</time>
      </trkpt>
      <trkpt lat="36.762176299647" lon="-3.861732185863">
        <ele>103.8</ele>
        <time>2019-01-11T14:42:12Z</time>
      </trkpt>
      <trkpt lat="36.762189626868" lon="-3.861671081812">
        <ele>103.8</ele>
        <time>2019-01-11T14:42:14Z</time>
      </trkpt>
      <trkpt lat="36.762153249422" lon="-3.861456337534">
        <ele>104.2</ele>
        <time>2019-01-11T14:42:18Z</time>
      </trkpt>
      <trkpt lat="36.76217437181" lon="-3.861029279729">
        <ele>103</ele>
        <time>2019-01-11T14:42:24Z</time>
      </trkpt>
      <trkpt lat="36.762174958543" lon="-3.860970438791">
        <ele>102.6</ele>
        <time>2019-01-11T14:42:25Z</time>
      </trkpt>
      <trkpt lat="36.762179233312" lon="-3.860870023629">
        <ele>102</ele>
        <time>2019-01-11T14:42:27Z</time>
      </trkpt>
      <trkpt lat="36.762215275482" lon="-3.860647484184">
        <ele>101.6</ele>
        <time>2019-01-11T14:42:33Z</time>
      </trkpt>
      <trkpt lat="36.762248886901" lon="-3.860438523417">
        <ele>101.4</ele>
        <time>2019-01-11T14:42:39Z</time>
      </trkpt>
      <trkpt lat="36.762266656529" lon="-3.860254289255">
        <ele>102.8</ele>
        <time>2019-01-11T14:42:45Z</time>
      </trkpt>
      <trkpt lat="36.762278642646" lon="-3.860196789421">
        <ele>100.2</ele>
        <time>2019-01-11T14:42:47Z</time>
      </trkpt>
      <trkpt lat="36.762290461125" lon="-3.860079442821">
        <ele>101.4</ele>
        <time>2019-01-11T14:42:51Z</time>
      </trkpt>
      <trkpt lat="36.762282414501" lon="-3.859975926356">
        <ele>100</ele>
        <time>2019-01-11T14:42:55Z</time>
      </trkpt>
      <trkpt lat="36.76227411642" lon="-3.85992027054">
        <ele>101.8</ele>
        <time>2019-01-11T14:42:57Z</time>
      </trkpt>
      <trkpt lat="36.762268332909" lon="-3.859836954454">
        <ele>101.4</ele>
        <time>2019-01-11T14:43:00Z</time>
      </trkpt>
      <trkpt lat="36.762268584366" lon="-3.859778281154">
        <ele>102.4</ele>
        <time>2019-01-11T14:43:02Z</time>
      </trkpt>
      <trkpt lat="36.762278894103" lon="-3.859728827944">
        <ele>102.6</ele>
        <time>2019-01-11T14:43:04Z</time>
      </trkpt>
      <trkpt lat="36.762282749777" lon="-3.859698569285">
        <ele>103.4</ele>
        <time>2019-01-11T14:43:05Z</time>
      </trkpt>
      <trkpt lat="36.762287192184" lon="-3.859567979283">
        <ele>104.6</ele>
        <time>2019-01-11T14:43:10Z</time>
      </trkpt>
      <trkpt lat="36.76228333651" lon="-3.859489524699">
        <ele>103.8</ele>
        <time>2019-01-11T14:43:13Z</time>
      </trkpt>
      <trkpt lat="36.762286018718" lon="-3.859461612972">
        <ele>103.6</ele>
        <time>2019-01-11T14:43:14Z</time>
      </trkpt>
      <trkpt lat="36.762306135278" lon="-3.859403861681">
        <ele>105.2</ele>
        <time>2019-01-11T14:43:16Z</time>
      </trkpt>
      <trkpt lat="36.76231183497" lon="-3.859351726263">
        <ele>104.2</ele>
        <time>2019-01-11T14:43:18Z</time>
      </trkpt>
      <trkpt lat="36.762311332056" lon="-3.859320880871">
        <ele>104.2</ele>
        <time>2019-01-11T14:43:19Z</time>
      </trkpt>
      <trkpt lat="36.762323234354" lon="-3.859153242871">
        <ele>104.8</ele>
        <time>2019-01-11T14:43:25Z</time>
      </trkpt>
      <trkpt lat="36.762331364797" lon="-3.85910387348">
        <ele>106</ele>
        <time>2019-01-11T14:43:27Z</time>
      </trkpt>
      <trkpt lat="36.76231518773" lon="-3.858953166918">
        <ele>105.8</ele>
        <time>2019-01-11T14:43:33Z</time>
      </trkpt>
      <trkpt lat="36.762312840798" lon="-3.858923578811">
        <ele>106.6</ele>
        <time>2019-01-11T14:43:34Z</time>
      </trkpt>
      <trkpt lat="36.762295154989" lon="-3.858795084284">
        <ele>107.4</ele>
        <time>2019-01-11T14:43:39Z</time>
      </trkpt>
      <trkpt lat="36.762297837197" lon="-3.85877697938">
        <ele>106.6</ele>
        <time>2019-01-11T14:43:45Z</time>
      </trkpt>
      <trkpt lat="36.762299345939" lon="-3.858787456755">
        <ele>106.6</ele>
        <time>2019-01-11T14:43:46Z</time>
      </trkpt>
      <trkpt lat="36.762312421703" lon="-3.858843699304">
        <ele>107.2</ele>
        <time>2019-01-11T14:43:49Z</time>
      </trkpt>
      <trkpt lat="36.762328179675" lon="-3.859003374499">
        <ele>106.6</ele>
        <time>2019-01-11T14:43:55Z</time>
      </trkpt>
      <trkpt lat="36.762326251838" lon="-3.85903262733">
        <ele>106.2</ele>
        <time>2019-01-11T14:43:56Z</time>
      </trkpt>
      <trkpt lat="36.762312254065" lon="-3.859186267557">
        <ele>105.2</ele>
        <time>2019-01-11T14:44:01Z</time>
      </trkpt>
      <trkpt lat="36.762296496093" lon="-3.859392378478">
        <ele>105.2</ele>
        <time>2019-01-11T14:44:07Z</time>
      </trkpt>
      <trkpt lat="36.76228836565" lon="-3.859497236047">
        <ele>103.8</ele>
        <time>2019-01-11T14:44:10Z</time>
      </trkpt>
      <trkpt lat="36.76227244004" lon="-3.85972329589">
        <ele>103.2</ele>
        <time>2019-01-11T14:44:16Z</time>
      </trkpt>
      <trkpt lat="36.762252072023" lon="-3.859952205579">
        <ele>102.8</ele>
        <time>2019-01-11T14:44:21Z</time>
      </trkpt>
      <trkpt lat="36.762239331535" lon="-3.860150688971">
        <ele>101.6</ele>
        <time>2019-01-11T14:44:25Z</time>
      </trkpt>
      <trkpt lat="36.762235224404" lon="-3.860254121617">
        <ele>101.2</ele>
        <time>2019-01-11T14:44:27Z</time>
      </trkpt>
      <trkpt lat="36.762233128929" lon="-3.860359565919">
        <ele>100.6</ele>
        <time>2019-01-11T14:44:29Z</time>
      </trkpt>
      <trkpt lat="36.762215610758" lon="-3.860525946634">
        <ele>99.4</ele>
        <time>2019-01-11T14:44:32Z</time>
      </trkpt>
      <trkpt lat="36.762190129782" lon="-3.860918135735">
        <ele>98.2</ele>
        <time>2019-01-11T14:44:38Z</time>
      </trkpt>
      <trkpt lat="36.762168672118" lon="-3.861234720098">
        <ele>97</ele>
        <time>2019-01-11T14:44:43Z</time>
      </trkpt>
      <trkpt lat="36.762141850038" lon="-3.861449799652">
        <ele>98.4</ele>
        <time>2019-01-11T14:44:48Z</time>
      </trkpt>
      <trkpt lat="36.762144113151" lon="-3.861603104603">
        <ele>99.6</ele>
        <time>2019-01-11T14:44:53Z</time>
      </trkpt>
      <trkpt lat="36.762137239993" lon="-3.861696311331">
        <ele>100.8</ele>
        <time>2019-01-11T14:44:58Z</time>
      </trkpt>
      <trkpt lat="36.762125170057" lon="-3.861733191691">
        <ele>100.8</ele>
        <time>2019-01-11T14:45:01Z</time>
      </trkpt>
      <trkpt lat="36.762158613838" lon="-3.861733946062">
        <ele>101</ele>
        <time>2019-01-11T14:45:07Z</time>
      </trkpt>
      <trkpt lat="36.762177808389" lon="-3.861700502281">
        <ele>101</ele>
        <time>2019-01-11T14:45:10Z</time>
      </trkpt>
      <trkpt lat="36.762187531393" lon="-3.861634201452">
        <ele>101</ele>
        <time>2019-01-11T14:45:12Z</time>
      </trkpt>
      <trkpt lat="36.762175712914" lon="-3.861542252009">
        <ele>100.8</ele>
        <time>2019-01-11T14:45:14Z</time>
      </trkpt>
      <trkpt lat="36.76216598991" lon="-3.86134770811">
        <ele>98.6</ele>
        <time>2019-01-11T14:45:17Z</time>
      </trkpt>
      <trkpt lat="36.762188956316" lon="-3.860926433816">
        <ele>97.4</ele>
        <time>2019-01-11T14:45:23Z</time>
      </trkpt>
      <trkpt lat="36.76219113561" lon="-3.860787964828">
        <ele>96</ele>
        <time>2019-01-11T14:45:26Z</time>
      </trkpt>
      <trkpt lat="36.76220203208" lon="-3.86059752806">
        <ele>97.2</ele>
        <time>2019-01-11T14:45:31Z</time>
      </trkpt>
      <trkpt lat="36.762235894956" lon="-3.86041312626">
        <ele>96.8</ele>
        <time>2019-01-11T14:45:37Z</time>
      </trkpt>
      <trkpt lat="36.762245701779" lon="-3.860256300911">
        <ele>98.6</ele>
        <time>2019-01-11T14:45:42Z</time>
      </trkpt>
      <trkpt lat="36.762281157216" lon="-3.860074748957">
        <ele>98.6</ele>
        <time>2019-01-11T14:45:48Z</time>
      </trkpt>
      <trkpt lat="36.762286018718" lon="-3.859901662722">
        <ele>99.4</ele>
        <time>2019-01-11T14:45:54Z</time>
      </trkpt>
      <trkpt lat="36.762282917415" lon="-3.859872661348">
        <ele>101</ele>
        <time>2019-01-11T14:45:55Z</time>
      </trkpt>
      <trkpt lat="36.762299513577" lon="-3.85972329589">
        <ele>102.6</ele>
        <time>2019-01-11T14:46:00Z</time>
      </trkpt>
      <trkpt lat="36.76231854049" lon="-3.859607877127">
        <ele>103.8</ele>
        <time>2019-01-11T14:46:04Z</time>
      </trkpt>
      <trkpt lat="36.762343518552" lon="-3.859451219416">
        <ele>103.6</ele>
        <time>2019-01-11T14:46:10Z</time>
      </trkpt>
      <trkpt lat="36.762328934046" lon="-3.859299087931">
        <ele>104.4</ele>
        <time>2019-01-11T14:46:16Z</time>
      </trkpt>
      <trkpt lat="36.76232776058" lon="-3.859214430741">
        <ele>105</ele>
        <time>2019-01-11T14:46:19Z</time>
      </trkpt>
      <trkpt lat="36.762335136652" lon="-3.859080823255">
        <ele>106</ele>
        <time>2019-01-11T14:46:24Z</time>
      </trkpt>
      <trkpt lat="36.762322647621" lon="-3.858913688169">
        <ele>106.6</ele>
        <time>2019-01-11T14:46:30Z</time>
      </trkpt>
      <trkpt lat="36.762315020092" lon="-3.858803466184">
        <ele>107.4</ele>
        <time>2019-01-11T14:46:34Z</time>
      </trkpt>
      <trkpt lat="36.762311248237" lon="-3.858744541427">
        <ele>106.4</ele>
        <time>2019-01-11T14:46:37Z</time>
      </trkpt>
      <trkpt lat="36.762306554373" lon="-3.858771447326">
        <ele>106.4</ele>
        <time>2019-01-11T14:46:42Z</time>
      </trkpt>
      <trkpt lat="36.762308230753" lon="-3.858792821171">
        <ele>107.4</ele>
        <time>2019-01-11T14:46:43Z</time>
      </trkpt>
      <trkpt lat="36.762307727839" lon="-3.858815955215">
        <ele>107.2</ele>
        <time>2019-01-11T14:46:44Z</time>
      </trkpt>
      <trkpt lat="36.762320971241" lon="-3.859005302336">
        <ele>106.6</ele>
        <time>2019-01-11T14:46:50Z</time>
      </trkpt>
      <trkpt lat="36.762317115567" lon="-3.85904100923">
        <ele>106.2</ele>
        <time>2019-01-11T14:46:51Z</time>
      </trkpt>
      <trkpt lat="36.762304710355" lon="-3.859226584496">
        <ele>105</ele>
        <time>2019-01-11T14:46:56Z</time>
      </trkpt>
      <trkpt lat="36.762287108365" lon="-3.859460690963">
        <ele>105.4</ele>
        <time>2019-01-11T14:47:02Z</time>
      </trkpt>
      <trkpt lat="36.762266907986" lon="-3.859717847655">
        <ele>104.6</ele>
        <time>2019-01-11T14:47:08Z</time>
      </trkpt>
      <trkpt lat="36.762256849706" lon="-3.859848689114">
        <ele>103</ele>
        <time>2019-01-11T14:47:11Z</time>
      </trkpt>
      <trkpt lat="36.762233715662" lon="-3.860137445569">
        <ele>103</ele>
        <time>2019-01-11T14:47:17Z</time>
      </trkpt>
      <trkpt lat="36.762228686522" lon="-3.860250433581">
        <ele>101.2</ele>
        <time>2019-01-11T14:47:19Z</time>
      </trkpt>
      <trkpt lat="36.762226423409" lon="-3.860311872908">
        <ele>100</ele>
        <time>2019-01-11T14:47:20Z</time>
      </trkpt>
      <trkpt lat="36.762218963518" lon="-3.860437601408">
        <ele>98.6</ele>
        <time>2019-01-11T14:47:22Z</time>
      </trkpt>
      <trkpt lat="36.762207815591" lon="-3.86063357023">
        <ele>97.4</ele>
        <time>2019-01-11T14:47:25Z</time>
      </trkpt>
      <trkpt lat="36.762199852786" lon="-3.86076600425">
        <ele>99</ele>
        <time>2019-01-11T14:47:27Z</time>
      </trkpt>
      <trkpt lat="36.762195745655" lon="-3.860835322563">
        <ele>97.8</ele>
        <time>2019-01-11T14:47:28Z</time>
      </trkpt>
      <trkpt lat="36.762185016823" lon="-3.860983514555">
        <ele>96.8</ele>
        <time>2019-01-11T14:47:30Z</time>
      </trkpt>
      <trkpt lat="36.762160876951" lon="-3.861329770844">
        <ele>97.6</ele>
        <time>2019-01-11T14:47:36Z</time>
      </trkpt>
      <trkpt lat="36.762159032933" lon="-3.861375284561">
        <ele>98.6</ele>
        <time>2019-01-11T14:47:37Z</time>
      </trkpt>
      <trkpt lat="36.762167833928" lon="-3.861555914506">
        <ele>100.4</ele>
        <time>2019-01-11T14:47:42Z</time>
      </trkpt>
      <trkpt lat="36.762164984082" lon="-3.861702681575">
        <ele>101</ele>
        <time>2019-01-11T14:47:48Z</time>
      </trkpt>
      <trkpt lat="36.76213497688" lon="-3.86177769958">
        <ele>100.4</ele>
        <time>2019-01-11T14:47:54Z</time>
      </trkpt>
      <trkpt lat="36.762139503106" lon="-3.86177267044">
        <ele>100.4</ele>
        <time>2019-01-11T14:48:00Z</time>
      </trkpt>
      <trkpt lat="36.762138916373" lon="-3.8617676413">
        <ele>100.6</ele>
        <time>2019-01-11T14:48:06Z</time>
      </trkpt>
      <trkpt lat="36.762140508934" lon="-3.861767976576">
        <ele>100.6</ele>
        <time>2019-01-11T14:48:12Z</time>
      </trkpt>
      <trkpt lat="36.76215341706" lon="-3.861763534169">
        <ele>100.8</ele>
        <time>2019-01-11T14:48:18Z</time>
      </trkpt>
      <trkpt lat="36.762165067901" lon="-3.861753978803">
        <ele>100.8</ele>
        <time>2019-01-11T14:48:24Z</time>
      </trkpt>
      <trkpt lat="36.762173198344" lon="-3.861720451203">
        <ele>100.8</ele>
        <time>2019-01-11T14:48:27Z</time>
      </trkpt>
      <trkpt lat="36.762184849185" lon="-3.861647277216">
        <ele>101</ele>
        <time>2019-01-11T14:48:29Z</time>
      </trkpt>
      <trkpt lat="36.762149896662" lon="-3.861404369754">
        <ele>98.2</ele>
        <time>2019-01-11T14:48:33Z</time>
      </trkpt>
      <trkpt lat="36.762149812843" lon="-3.861329770844">
        <ele>96.2</ele>
        <time>2019-01-11T14:48:34Z</time>
      </trkpt>
      <trkpt lat="36.76215425525" lon="-3.861250729527">
        <ele>94.6</ele>
        <time>2019-01-11T14:48:35Z</time>
      </trkpt>
      <trkpt lat="36.762173365982" lon="-3.860897264804">
        <ele>93.8</ele>
        <time>2019-01-11T14:48:40Z</time>
      </trkpt>
      <trkpt lat="36.76218778285" lon="-3.860744881862">
        <ele>96.2</ele>
        <time>2019-01-11T14:48:43Z</time>
      </trkpt>
      <trkpt lat="36.762245534141" lon="-3.860509769567">
        <ele>97.2</ele>
        <time>2019-01-11T14:48:49Z</time>
      </trkpt>
      <trkpt lat="36.762290796401" lon="-3.86033014545">
        <ele>97.4</ele>
        <time>2019-01-11T14:48:54Z</time>
      </trkpt>
      <trkpt lat="36.762315858282" lon="-3.860148509677">
        <ele>98.4</ele>
        <time>2019-01-11T14:48:59Z</time>
      </trkpt>
      <trkpt lat="36.76232440782" lon="-3.859963521144">
        <ele>98.8</ele>
        <time>2019-01-11T14:49:05Z</time>
      </trkpt>
      <trkpt lat="36.762296496093" lon="-3.859779789896">
        <ele>99.8</ele>
        <time>2019-01-11T14:49:11Z</time>
      </trkpt>
      <trkpt lat="36.762280402845" lon="-3.859602009797">
        <ele>100.8</ele>
        <time>2019-01-11T14:49:17Z</time>
      </trkpt>
      <trkpt lat="36.762283671786" lon="-3.859510814725">
        <ele>100.8</ele>
        <time>2019-01-11T14:49:20Z</time>
      </trkpt>
      <trkpt lat="36.762293730066" lon="-3.859400257464">
        <ele>101.8</ele>
        <time>2019-01-11T14:49:24Z</time>
      </trkpt>
      <trkpt lat="36.762311583513" lon="-3.859222309727">
        <ele>102.4</ele>
        <time>2019-01-11T14:49:30Z</time>
      </trkpt>
      <trkpt lat="36.762307224925" lon="-3.859138574546">
        <ele>102.8</ele>
        <time>2019-01-11T14:49:33Z</time>
      </trkpt>
      <trkpt lat="36.76231351135" lon="-3.858980827188">
        <ele>103.6</ele>
        <time>2019-01-11T14:49:39Z</time>
      </trkpt>
      <trkpt lat="36.762324910734" lon="-3.858921231879">
        <ele>104</ele>
        <time>2019-01-11T14:49:41Z</time>
      </trkpt>
      <trkpt lat="36.762322312345" lon="-3.858770776774">
        <ele>106.6</ele>
        <time>2019-01-11T14:49:47Z</time>
      </trkpt>
      <trkpt lat="36.762306554373" lon="-3.858757030458">
        <ele>106.2</ele>
        <time>2019-01-11T14:49:52Z</time>
      </trkpt>
      <trkpt lat="36.762307979296" lon="-3.858789803687">
        <ele>107.4</ele>
        <time>2019-01-11T14:49:54Z</time>
      </trkpt>
      <trkpt lat="36.762310074771" lon="-3.85881134517">
        <ele>107.8</ele>
        <time>2019-01-11T14:49:55Z</time>
      </trkpt>
      <trkpt lat="36.762321809431" lon="-3.858910503047">
        <ele>106.6</ele>
        <time>2019-01-11T14:49:59Z</time>
      </trkpt>
      <trkpt lat="36.762306973468" lon="-3.859095659218">
        <ele>106</ele>
        <time>2019-01-11T14:50:05Z</time>
      </trkpt>
      <trkpt lat="36.762301273776" lon="-3.859231948912">
        <ele>105</ele>
        <time>2019-01-11T14:50:09Z</time>
      </trkpt>
      <trkpt lat="36.762283001234" lon="-3.859451303235">
        <ele>104</ele>
        <time>2019-01-11T14:50:15Z</time>
      </trkpt>
      <trkpt lat="36.762271350393" lon="-3.859558759193">
        <ele>104</ele>
        <time>2019-01-11T14:50:18Z</time>
      </trkpt>
      <trkpt lat="36.762248300168" lon="-3.859799235904">
        <ele>104.4</ele>
        <time>2019-01-11T14:50:24Z</time>
      </trkpt>
      <trkpt lat="36.762239918268" lon="-3.859892777908">
        <ele>102.8</ele>
        <time>2019-01-11T14:50:26Z</time>
      </trkpt>
      <trkpt lat="36.762229189436" lon="-3.860103079779">
        <ele>101.6</ele>
        <time>2019-01-11T14:50:30Z</time>
      </trkpt>
      <trkpt lat="36.762208067048" lon="-3.860502477314">
        <ele>100.8</ele>
        <time>2019-01-11T14:50:36Z</time>
      </trkpt>
      <trkpt lat="36.762204127555" lon="-3.860580177527">
        <ele>100.6</ele>
        <time>2019-01-11T14:50:37Z</time>
      </trkpt>
      <trkpt lat="36.762188201945" lon="-3.860818223487">
        <ele>99.4</ele>
        <time>2019-01-11T14:50:40Z</time>
      </trkpt>
      <trkpt lat="36.76217269543" lon="-3.861066243908">
        <ele>98</ele>
        <time>2019-01-11T14:50:43Z</time>
      </trkpt>
      <trkpt lat="36.762141430943" lon="-3.861429515454">
        <ele>98.4</ele>
        <time>2019-01-11T14:50:49Z</time>
      </trkpt>
      <trkpt lat="36.762135731251" lon="-3.861508305314">
        <ele>99.2</ele>
        <time>2019-01-11T14:50:51Z</time>
      </trkpt>
      <trkpt lat="36.762154841983" lon="-3.861663538102">
        <ele>99.4</ele>
        <time>2019-01-11T14:50:57Z</time>
      </trkpt>
      <trkpt lat="36.762137826726" lon="-3.861724390696">
        <ele>100.8</ele>
        <time>2019-01-11T14:51:00Z</time>
      </trkpt>
      <trkpt lat="36.76212575679" lon="-3.861744423437">
        <ele>100.6</ele>
        <time>2019-01-11T14:51:06Z</time>
      </trkpt>
      <trkpt lat="36.762136066527" lon="-3.861716679348">
        <ele>100.6</ele>
        <time>2019-01-11T14:51:08Z</time>
      </trkpt>
      <trkpt lat="36.762152075956" lon="-3.861652473994">
        <ele>100.6</ele>
        <time>2019-01-11T14:51:10Z</time>
      </trkpt>
      <trkpt lat="36.762148052644" lon="-3.861606373544">
        <ele>99.6</ele>
        <time>2019-01-11T14:51:11Z</time>
      </trkpt>
      <trkpt lat="36.762125421514" lon="-3.861426749427">
        <ele>99.8</ele>
        <time>2019-01-11T14:51:14Z</time>
      </trkpt>
      <trkpt lat="36.762165570815" lon="-3.860985526211">
        <ele>99.2</ele>
        <time>2019-01-11T14:51:20Z</time>
      </trkpt>
      <trkpt lat="36.762178814217" lon="-3.860832137441">
        <ele>98.4</ele>
        <time>2019-01-11T14:51:23Z</time>
      </trkpt>
      <trkpt lat="36.762195745655" lon="-3.860749911002">
        <ele>96.2</ele>
        <time>2019-01-11T14:51:25Z</time>
      </trkpt>
      <trkpt lat="36.762231033454" lon="-3.860546230832">
        <ele>96.4</ele>
        <time>2019-01-11T14:51:31Z</time>
      </trkpt>
      <trkpt lat="36.762264644873" lon="-3.860345987241">
        <ele>96.8</ele>
        <time>2019-01-11T14:51:37Z</time>
      </trkpt>
      <trkpt lat="36.762267829995" lon="-3.860280524602">
        <ele>97.6</ele>
        <time>2019-01-11T14:51:39Z</time>
      </trkpt>
      <trkpt lat="36.762271685669" lon="-3.860251187952">
        <ele>98.6</ele>
        <time>2019-01-11T14:51:40Z</time>
      </trkpt>
      <trkpt lat="36.762283504148" lon="-3.860195951231">
        <ele>100.2</ele>
        <time>2019-01-11T14:51:42Z</time>
      </trkpt>
      <trkpt lat="36.762289455297" lon="-3.860073826948">
        <ele>101.4</ele>
        <time>2019-01-11T14:51:46Z</time>
      </trkpt>
      <trkpt lat="36.762301106138" lon="-3.859957653814">
        <ele>101.6</ele>
        <time>2019-01-11T14:51:50Z</time>
      </trkpt>
      <trkpt lat="36.762293981523" lon="-3.859773084376">
        <ele>100.6</ele>
        <time>2019-01-11T14:51:56Z</time>
      </trkpt>
      <trkpt lat="36.762296412274" lon="-3.859703933701">
        <ele>102.6</ele>
        <time>2019-01-11T14:51:58Z</time>
      </trkpt>
      <trkpt lat="36.762315355368" lon="-3.859531937113">
        <ele>103.2</ele>
        <time>2019-01-11T14:52:04Z</time>
      </trkpt>
      <trkpt lat="36.762331364797" lon="-3.859364634389">
        <ele>103.4</ele>
        <time>2019-01-11T14:52:10Z</time>
      </trkpt>
      <trkpt lat="36.762326335657" lon="-3.859316103188">
        <ele>103.6</ele>
        <time>2019-01-11T14:52:12Z</time>
      </trkpt>
      <trkpt lat="36.762323234354" lon="-3.859257597526">
        <ele>102.2</ele>
        <time>2019-01-11T14:52:14Z</time>
      </trkpt>
      <trkpt lat="36.762338405593" lon="-3.859091216811">
        <ele>103.2</ele>
        <time>2019-01-11T14:52:20Z</time>
      </trkpt>
      <trkpt lat="36.762346536036" lon="-3.858935145833">
        <ele>102.6</ele>
        <time>2019-01-11T14:52:26Z</time>
      </trkpt>
      <trkpt lat="36.762353828289" lon="-3.858837831974">
        <ele>103.4</ele>
        <time>2019-01-11T14:52:30Z</time>
      </trkpt>
      <trkpt lat="36.762355253212" lon="-3.858772536973">
        <ele>103.8</ele>
        <time>2019-01-11T14:52:33Z</time>
      </trkpt>
      <trkpt lat="36.762329017865" lon="-3.858768178385">
        <ele>104</ele>
        <time>2019-01-11T14:52:39Z</time>
      </trkpt>
      <trkpt lat="36.762327844399" lon="-3.858765747634">
        <ele>103.8</ele>
        <time>2019-01-11T14:52:45Z</time>
      </trkpt>
      <trkpt lat="36.762324826915" lon="-3.858761472865">
        <ele>103.8</ele>
        <time>2019-01-11T14:52:51Z</time>
      </trkpt>
      <trkpt lat="36.762320719784" lon="-3.858755354078">
        <ele>103.8</ele>
        <time>2019-01-11T14:52:57Z</time>
      </trkpt>
      <trkpt lat="36.762315606825" lon="-3.858750492576">
        <ele>104</ele>
        <time>2019-01-11T14:53:03Z</time>
      </trkpt>
      <trkpt lat="36.762313176074" lon="-3.858748648558">
        <ele>103.8</ele>
        <time>2019-01-11T14:53:09Z</time>
      </trkpt>
      <trkpt lat="36.762314014264" lon="-3.858755354078">
        <ele>103.8</ele>
        <time>2019-01-11T14:53:15Z</time>
      </trkpt>
      <trkpt lat="36.762309739495" lon="-3.858753007146">
        <ele>103.8</ele>
        <time>2019-01-11T14:53:21Z</time>
      </trkpt>
      <trkpt lat="36.762309571857" lon="-3.858754096793">
        <ele>104</ele>
        <time>2019-01-11T14:53:27Z</time>
      </trkpt>
      <trkpt lat="36.762310577685" lon="-3.85875434825">
        <ele>103.8</ele>
        <time>2019-01-11T14:53:33Z</time>
      </trkpt>
      <trkpt lat="36.762310242409" lon="-3.858753426241">
        <ele>103.8</ele>
        <time>2019-01-11T14:53:39Z</time>
      </trkpt>
      <trkpt lat="36.762311583513" lon="-3.85875183368">
        <ele>104</ele>
        <time>2019-01-11T14:53:45Z</time>
      </trkpt>
      <trkpt lat="36.762312840798" lon="-3.858749822024">
        <ele>104</ele>
        <time>2019-01-11T14:53:51Z</time>
      </trkpt>
      <trkpt lat="36.762313259893" lon="-3.85874931911">
        <ele>104</ele>
        <time>2019-01-11T14:53:57Z</time>
      </trkpt>
      <trkpt lat="36.762313259893" lon="-3.858749151472">
        <ele>104</ele>
        <time>2019-01-11T14:54:03Z</time>
      </trkpt>
      <trkpt lat="36.762312002608" lon="-3.858749905843">
        <ele>104</ele>
        <time>2019-01-11T14:54:09Z</time>
      </trkpt>
      <trkpt lat="36.762311248237" lon="-3.858750408757">
        <ele>104</ele>
        <time>2019-01-11T14:54:15Z</time>
      </trkpt>
      <trkpt lat="36.762308566029" lon="-3.858752085137">
        <ele>104</ele>
        <time>2019-01-11T14:54:21Z</time>
      </trkpt>
      <trkpt lat="36.762308146934" lon="-3.858752336594">
        <ele>104</ele>
        <time>2019-01-11T14:54:23Z</time>
      </trkpt>
      <trkpt lat="36.762309068943" lon="-3.858752336594">
        <ele>104</ele>
        <time>2019-01-11T14:54:29Z</time>
      </trkpt>
      <trkpt lat="36.762304039803" lon="-3.858748732377">
        <ele>104</ele>
        <time>2019-01-11T14:54:35Z</time>
      </trkpt>
      <trkpt lat="36.762304375079" lon="-3.858748229463">
        <ele>104</ele>
        <time>2019-01-11T14:54:41Z</time>
      </trkpt>
      <trkpt lat="36.762305800002" lon="-3.858747307454">
        <ele>104</ele>
        <time>2019-01-11T14:54:47Z</time>
      </trkpt>
      <trkpt lat="36.762306470554" lon="-3.858746972178">
        <ele>104</ele>
        <time>2019-01-11T14:54:53Z</time>
      </trkpt>
      <trkpt lat="36.762309655676" lon="-3.8587501573">
        <ele>104</ele>
        <time>2019-01-11T14:54:59Z</time>
      </trkpt>
      <trkpt lat="36.762307224925" lon="-3.85875267187">
        <ele>104</ele>
        <time>2019-01-11T14:55:05Z</time>
      </trkpt>
      <trkpt lat="36.762304039803" lon="-3.858749570567">
        <ele>104</ele>
        <time>2019-01-11T14:55:11Z</time>
      </trkpt>
      <trkpt lat="36.762304375079" lon="-3.858748648558">
        <ele>104</ele>
        <time>2019-01-11T14:55:13Z</time>
      </trkpt>
      <trkpt lat="36.76230429126" lon="-3.858747810368">
        <ele>104</ele>
        <time>2019-01-11T14:55:19Z</time>
      </trkpt>
      <trkpt lat="36.762304039803" lon="-3.85874764273">
        <ele>104</ele>
        <time>2019-01-11T14:55:25Z</time>
      </trkpt>
      <trkpt lat="36.762304039803" lon="-3.858746972178">
        <ele>104</ele>
        <time>2019-01-11T14:55:31Z</time>
      </trkpt>
      <trkpt lat="36.76230596764" lon="-3.858746050169">
        <ele>104</ele>
        <time>2019-01-11T14:55:37Z</time>
      </trkpt>
      <trkpt lat="36.76230596764" lon="-3.858745798712">
        <ele>104</ele>
        <time>2019-01-11T14:55:43Z</time>
      </trkpt>
      <trkpt lat="36.762305464726" lon="-3.858746972178">
        <ele>104</ele>
        <time>2019-01-11T14:55:49Z</time>
      </trkpt>
      <trkpt lat="36.762304710355" lon="-3.858749486748">
        <ele>104</ele>
        <time>2019-01-11T14:55:55Z</time>
      </trkpt>
      <trkpt lat="36.762308901305" lon="-3.858751666042">
        <ele>104</ele>
        <time>2019-01-11T14:56:01Z</time>
      </trkpt>
      <trkpt lat="36.762308063115" lon="-3.858751582223">
        <ele>104</ele>
        <time>2019-01-11T14:56:07Z</time>
      </trkpt>
      <trkpt lat="36.762308817486" lon="-3.858750073481">
        <ele>104</ele>
        <time>2019-01-11T14:56:13Z</time>
      </trkpt>
      <trkpt lat="36.762309571857" lon="-3.858746972178">
        <ele>104</ele>
        <time>2019-01-11T14:56:19Z</time>
      </trkpt>
      <trkpt lat="36.762308901305" lon="-3.858748229463">
        <ele>104</ele>
        <time>2019-01-11T14:56:25Z</time>
      </trkpt>
      <trkpt lat="36.762311080599" lon="-3.858753761517">
        <ele>104</ele>
        <time>2019-01-11T14:56:31Z</time>
      </trkpt>
      <trkpt lat="36.762314433359" lon="-3.858751582223">
        <ele>104</ele>
        <time>2019-01-11T14:56:37Z</time>
      </trkpt>
      <trkpt lat="36.762312589341" lon="-3.858747055997">
        <ele>104</ele>
        <time>2019-01-11T14:56:43Z</time>
      </trkpt>
      <trkpt lat="36.762313092255" lon="-3.858746050169">
        <ele>104</ele>
        <time>2019-01-11T14:56:49Z</time>
      </trkpt>
      <trkpt lat="36.762307392563" lon="-3.858738338821">
        <ele>104</ele>
        <time>2019-01-11T14:56:55Z</time>
      </trkpt>
      <trkpt lat="36.762294652075" lon="-3.858717970804">
        <ele>103.8</ele>
        <time>2019-01-11T14:57:01Z</time>
      </trkpt>
      <trkpt lat="36.762293897704" lon="-3.85872249703">
        <ele>104</ele>
        <time>2019-01-11T14:57:07Z</time>
      </trkpt>
      <trkpt lat="36.762290544944" lon="-3.858723586677">
        <ele>104</ele>
        <time>2019-01-11T14:57:10Z</time>
      </trkpt>
      <trkpt lat="36.762272020945" lon="-3.85878117033">
        <ele>103.8</ele>
        <time>2019-01-11T14:57:14Z</time>
      </trkpt>
      <trkpt lat="36.7622925566" lon="-3.858841352372">
        <ele>103.4</ele>
        <time>2019-01-11T14:57:20Z</time>
      </trkpt>
      <trkpt lat="36.762303201613" lon="-3.858837496698">
        <ele>103.6</ele>
        <time>2019-01-11T14:57:26Z</time>
      </trkpt>
      <trkpt lat="36.762300016491" lon="-3.858832802834">
        <ele>103.2</ele>
        <time>2019-01-11T14:57:32Z</time>
      </trkpt>
      <trkpt lat="36.762298507749" lon="-3.858854428136">
        <ele>103.2</ele>
        <time>2019-01-11T14:57:38Z</time>
      </trkpt>
      <trkpt lat="36.762308314572" lon="-3.858849482815">
        <ele>103.2</ele>
        <time>2019-01-11T14:57:44Z</time>
      </trkpt>
      <trkpt lat="36.762299765034" lon="-3.858870186108">
        <ele>103.2</ele>
        <time>2019-01-11T14:57:50Z</time>
      </trkpt>
      <trkpt lat="36.76230512945" lon="-3.858908072296">
        <ele>103.2</ele>
        <time>2019-01-11T14:57:52Z</time>
      </trkpt>
      <trkpt lat="36.762297082826" lon="-3.859018545738">
        <ele>103.2</ele>
        <time>2019-01-11T14:57:56Z</time>
      </trkpt>
      <trkpt lat="36.762286186356" lon="-3.859230607808">
        <ele>102.4</ele>
        <time>2019-01-11T14:58:01Z</time>
      </trkpt>
      <trkpt lat="36.762270428384" lon="-3.859488015957">
        <ele>101.4</ele>
        <time>2019-01-11T14:58:07Z</time>
      </trkpt>
      <trkpt lat="36.762254251317" lon="-3.859748944504">
        <ele>100.2</ele>
        <time>2019-01-11T14:58:12Z</time>
      </trkpt>
      <trkpt lat="36.762245953236" lon="-3.859934268313">
        <ele>102.2</ele>
        <time>2019-01-11T14:58:15Z</time>
      </trkpt>
      <trkpt lat="36.762220304622" lon="-3.860264934268">
        <ele>101.2</ele>
        <time>2019-01-11T14:58:20Z</time>
      </trkpt>
      <trkpt lat="36.762205049564" lon="-3.860406756016">
        <ele>100.2</ele>
        <time>2019-01-11T14:58:22Z</time>
      </trkpt>
      <trkpt lat="36.76218945923" lon="-3.860552433438">
        <ele>98.8</ele>
        <time>2019-01-11T14:58:24Z</time>
      </trkpt>
      <trkpt lat="36.762172946887" lon="-3.860918387192">
        <ele>97.6</ele>
        <time>2019-01-11T14:58:29Z</time>
      </trkpt>
      <trkpt lat="36.762204881926" lon="-3.861049731565">
        <ele>96.2</ele>
        <time>2019-01-11T14:58:31Z</time>
      </trkpt>
      <trkpt lat="36.762348631511" lon="-3.861221728153">
        <ele>96.6</ele>
        <time>2019-01-11T14:58:37Z</time>
      </trkpt>
      <trkpt lat="36.762386182423" lon="-3.86125131626">
        <ele>97.4</ele>
        <time>2019-01-11T14:58:39Z</time>
      </trkpt>
      <trkpt lat="36.762440832411" lon="-3.861292722846">
        <ele>98.4</ele>
        <time>2019-01-11T14:58:42Z</time>
      </trkpt>
      <trkpt lat="36.762515096045" lon="-3.861339158572">
        <ele>99.6</ele>
        <time>2019-01-11T14:58:46Z</time>
      </trkpt>
      <trkpt lat="36.762629257523" lon="-3.861408728342">
        <ele>100.6</ele>
        <time>2019-01-11T14:58:52Z</time>
      </trkpt>
      <trkpt lat="36.762650128454" lon="-3.861418618984">
        <ele>100.6</ele>
        <time>2019-01-11T14:58:53Z</time>
      </trkpt>
      <trkpt lat="36.762743838096" lon="-3.861417445518">
        <ele>101.8</ele>
        <time>2019-01-11T14:58:57Z</time>
      </trkpt>
      <trkpt lat="36.762810306563" lon="-3.86138710304">
        <ele>102.8</ele>
        <time>2019-01-11T14:59:00Z</time>
      </trkpt>
      <trkpt lat="36.762875517745" lon="-3.861349552128">
        <ele>103.2</ele>
        <time>2019-01-11T14:59:03Z</time>
      </trkpt>
      <trkpt lat="36.762919103625" lon="-3.861233127537">
        <ele>103.8</ele>
        <time>2019-01-11T14:59:08Z</time>
      </trkpt>
      <trkpt lat="36.762973585975" lon="-3.861036404344">
        <ele>104.6</ele>
        <time>2019-01-11T14:59:14Z</time>
      </trkpt>
      <trkpt lat="36.763001497702" lon="-3.860927523463">
        <ele>104.8</ele>
        <time>2019-01-11T14:59:17Z</time>
      </trkpt>
      <trkpt lat="36.763038378062" lon="-3.860740355636">
        <ele>105.2</ele>
        <time>2019-01-11T14:59:23Z</time>
      </trkpt>
      <trkpt lat="36.763047430514" lon="-3.860584033201">
        <ele>105.2</ele>
        <time>2019-01-11T14:59:29Z</time>
      </trkpt>
      <trkpt lat="36.763067966169" lon="-3.860390159854">
        <ele>105.6</ele>
        <time>2019-01-11T14:59:35Z</time>
      </trkpt>
      <trkpt lat="36.763092525136" lon="-3.860252026142">
        <ele>106</ele>
        <time>2019-01-11T14:59:39Z</time>
      </trkpt>
      <trkpt lat="36.763127226202" lon="-3.860053794207">
        <ele>106.4</ele>
        <time>2019-01-11T14:59:45Z</time>
      </trkpt>
      <trkpt lat="36.763138374129" lon="-3.859855394634">
        <ele>106.6</ele>
        <time>2019-01-11T14:59:51Z</time>
      </trkpt>
      <trkpt lat="36.763152455721" lon="-3.859718769664">
        <ele>107</ele>
        <time>2019-01-11T14:59:55Z</time>
      </trkpt>
      <trkpt lat="36.763161089078" lon="-3.859522633204">
        <ele>107.4</ele>
        <time>2019-01-11T15:00:01Z</time>
      </trkpt>
      <trkpt lat="36.763168213693" lon="-3.859476448935">
        <ele>107.6</ele>
        <time>2019-01-11T15:00:07Z</time>
      </trkpt>
      <trkpt lat="36.763162262544" lon="-3.8595548197">
        <ele>107.6</ele>
        <time>2019-01-11T15:00:10Z</time>
      </trkpt>
      <trkpt lat="36.763128148211" lon="-3.859722876795">
        <ele>107.4</ele>
        <time>2019-01-11T15:00:14Z</time>
      </trkpt>
      <trkpt lat="36.763085819616" lon="-3.860040047891">
        <ele>107</ele>
        <time>2019-01-11T15:00:20Z</time>
      </trkpt>
      <trkpt lat="36.763069391092" lon="-3.860209278452">
        <ele>106.6</ele>
        <time>2019-01-11T15:00:23Z</time>
      </trkpt>
      <trkpt lat="36.76302932561" lon="-3.860473811216">
        <ele>106.2</ele>
        <time>2019-01-11T15:00:28Z</time>
      </trkpt>
      <trkpt lat="36.762993199621" lon="-3.860689561322">
        <ele>106</ele>
        <time>2019-01-11T15:00:32Z</time>
      </trkpt>
      <trkpt lat="36.762941399479" lon="-3.860952166249">
        <ele>104.8</ele>
        <time>2019-01-11T15:00:37Z</time>
      </trkpt>
      <trkpt lat="36.762913739209" lon="-3.861095161463">
        <ele>104.4</ele>
        <time>2019-01-11T15:00:40Z</time>
      </trkpt>
      <trkpt lat="36.762863699266" lon="-3.861371764163">
        <ele>103.8</ele>
        <time>2019-01-11T15:00:45Z</time>
      </trkpt>
      <trkpt lat="36.76286420218" lon="-3.861427503798">
        <ele>103.8</ele>
        <time>2019-01-11T15:00:46Z</time>
      </trkpt>
      <trkpt lat="36.762861184696" lon="-3.861633782357">
        <ele>103</ele>
        <time>2019-01-11T15:00:52Z</time>
      </trkpt>
      <trkpt lat="36.762840481403" lon="-3.861665298301">
        <ele>103</ele>
        <time>2019-01-11T15:00:54Z</time>
      </trkpt>
      <trkpt lat="36.762770827814" lon="-3.861634117633">
        <ele>103.2</ele>
        <time>2019-01-11T15:01:00Z</time>
      </trkpt>
      <trkpt lat="36.76276445757" lon="-3.861482489062">
        <ele>103.6</ele>
        <time>2019-01-11T15:01:06Z</time>
      </trkpt>
      <trkpt lat="36.762770073443" lon="-3.861444519055">
        <ele>103.4</ele>
        <time>2019-01-11T15:01:08Z</time>
      </trkpt>
      <trkpt lat="36.762750292159" lon="-3.861424905409">
        <ele>102.8</ele>
        <time>2019-01-11T15:01:12Z</time>
      </trkpt>
      <trkpt lat="36.762692708506" lon="-3.861440998657">
        <ele>101.8</ele>
        <time>2019-01-11T15:01:16Z</time>
      </trkpt>
      <trkpt lat="36.762686338262" lon="-3.861456505172">
        <ele>101.4</ele>
        <time>2019-01-11T15:01:17Z</time>
      </trkpt>
      <trkpt lat="36.762683572235" lon="-3.861469916212">
        <ele>101.2</ele>
        <time>2019-01-11T15:01:23Z</time>
      </trkpt>
      <trkpt lat="36.762656833974" lon="-3.861412919292">
        <ele>101.4</ele>
        <time>2019-01-11T15:01:29Z</time>
      </trkpt>
      <trkpt lat="36.762583576168" lon="-3.861318706736">
        <ele>101.2</ele>
        <time>2019-01-11T15:01:35Z</time>
      </trkpt>
      <trkpt lat="36.762500092444" lon="-3.86131166594">
        <ele>100</ele>
        <time>2019-01-11T15:01:38Z</time>
      </trkpt>
      <trkpt lat="36.762447705569" lon="-3.861279479444">
        <ele>98.6</ele>
        <time>2019-01-11T15:01:40Z</time>
      </trkpt>
      <trkpt lat="36.762394983418" lon="-3.861227427845">
        <ele>97.2</ele>
        <time>2019-01-11T15:01:42Z</time>
      </trkpt>
      <trkpt lat="36.762293981523" lon="-3.861155343505">
        <ele>95.6</ele>
        <time>2019-01-11T15:01:45Z</time>
      </trkpt>
      <trkpt lat="36.762236900784" lon="-3.861082337156">
        <ele>95.4</ele>
        <time>2019-01-11T15:01:47Z</time>
      </trkpt>
      <trkpt lat="36.762192728171" lon="-3.860980916166">
        <ele>94</ele>
        <time>2019-01-11T15:01:49Z</time>
      </trkpt>
      <trkpt lat="36.762181999339" lon="-3.860929535119">
        <ele>92.8</ele>
        <time>2019-01-11T15:01:50Z</time>
      </trkpt>
      <trkpt lat="36.762196751483" lon="-3.860679503042">
        <ele>92</ele>
        <time>2019-01-11T15:01:56Z</time>
      </trkpt>
      <trkpt lat="36.762203540822" lon="-3.860480265279">
        <ele>92.4</ele>
        <time>2019-01-11T15:02:02Z</time>
      </trkpt>
      <trkpt lat="36.762227093961" lon="-3.860280189326">
        <ele>93.4</ele>
        <time>2019-01-11T15:02:08Z</time>
      </trkpt>
      <trkpt lat="36.762230195264" lon="-3.860219672008">
        <ele>94</ele>
        <time>2019-01-11T15:02:10Z</time>
      </trkpt>
      <trkpt lat="36.762229943807" lon="-3.860028816145">
        <ele>94.8</ele>
        <time>2019-01-11T15:02:16Z</time>
      </trkpt>
      <trkpt lat="36.762237655155" lon="-3.859965784257">
        <ele>95.2</ele>
        <time>2019-01-11T15:02:18Z</time>
      </trkpt>
      <trkpt lat="36.762231536368" lon="-3.859774257842">
        <ele>96.2</ele>
        <time>2019-01-11T15:02:24Z</time>
      </trkpt>
      <trkpt lat="36.762248635444" lon="-3.859711812687">
        <ele>96.2</ele>
        <time>2019-01-11T15:02:26Z</time>
      </trkpt>
      <trkpt lat="36.762281073397" lon="-3.859535206054">
        <ele>97.2</ele>
        <time>2019-01-11T15:02:32Z</time>
      </trkpt>
      <trkpt lat="36.762295406446" lon="-3.859474269641">
        <ele>97.4</ele>
        <time>2019-01-11T15:02:34Z</time>
      </trkpt>
      <trkpt lat="36.762298591568" lon="-3.859303949433">
        <ele>98.4</ele>
        <time>2019-01-11T15:02:40Z</time>
      </trkpt>
      <trkpt lat="36.762318205214" lon="-3.859146537351">
        <ele>99.6</ele>
        <time>2019-01-11T15:02:46Z</time>
      </trkpt>
      <trkpt lat="36.76232776058" lon="-3.858973702573">
        <ele>100.2</ele>
        <time>2019-01-11T15:02:52Z</time>
      </trkpt>
      <trkpt lat="36.762340752525" lon="-3.858915196911">
        <ele>100.6</ele>
        <time>2019-01-11T15:02:54Z</time>
      </trkpt>
      <trkpt lat="36.762345949303" lon="-3.858754515888">
        <ele>101.6</ele>
        <time>2019-01-11T15:03:00Z</time>
      </trkpt>
      <trkpt lat="36.762346787493" lon="-3.858729034912">
        <ele>101.8</ele>
        <time>2019-01-11T15:03:01Z</time>
      </trkpt>
      <trkpt lat="36.762344859656" lon="-3.858742697409">
        <ele>101.6</ele>
        <time>2019-01-11T15:03:07Z</time>
      </trkpt>
      <trkpt lat="36.762340584887" lon="-3.85879122861">
        <ele>101.8</ele>
        <time>2019-01-11T15:03:09Z</time>
      </trkpt>
      <trkpt lat="36.762323653449" lon="-3.859007565449">
        <ele>101.2</ele>
        <time>2019-01-11T15:03:15Z</time>
      </trkpt>
      <trkpt lat="36.762314265721" lon="-3.85909884434">
        <ele>100.4</ele>
        <time>2019-01-11T15:03:17Z</time>
      </trkpt>
      <trkpt lat="36.762304542717" lon="-3.859256172603">
        <ele>99.4</ele>
        <time>2019-01-11T15:03:20Z</time>
      </trkpt>
      <trkpt lat="36.762280738121" lon="-3.859501929911">
        <ele>98.4</ele>
        <time>2019-01-11T15:03:25Z</time>
      </trkpt>
      <trkpt lat="36.762255843878" lon="-3.859792446565">
        <ele>97.2</ele>
        <time>2019-01-11T15:03:31Z</time>
      </trkpt>
      <trkpt lat="36.762239247716" lon="-3.859946002973">
        <ele>96.2</ele>
        <time>2019-01-11T15:03:34Z</time>
      </trkpt>
      <trkpt lat="36.762216197491" lon="-3.860229227374">
        <ele>95</ele>
        <time>2019-01-11T15:03:39Z</time>
      </trkpt>
      <trkpt lat="36.762193231085" lon="-3.860538938579">
        <ele>93.8</ele>
        <time>2019-01-11T15:03:44Z</time>
      </trkpt>
      <trkpt lat="36.762183340443" lon="-3.860738511618">
        <ele>92.8</ele>
        <time>2019-01-11T15:03:47Z</time>
      </trkpt>
      <trkpt lat="36.762179987683" lon="-3.86087748352">
        <ele>91.8</ele>
        <time>2019-01-11T15:03:49Z</time>
      </trkpt>
      <trkpt lat="36.76220203208" lon="-3.861007738246">
        <ele>92.4</ele>
        <time>2019-01-11T15:03:51Z</time>
      </trkpt>
      <trkpt lat="36.76228920384" lon="-3.861163222491">
        <ele>95.6</ele>
        <time>2019-01-11T15:03:55Z</time>
      </trkpt>
      <trkpt lat="36.76242079967" lon="-3.861255088115">
        <ele>97</ele>
        <time>2019-01-11T15:04:01Z</time>
      </trkpt>
      <trkpt lat="36.762536302252" lon="-3.861337146916">
        <ele>97.6</ele>
        <time>2019-01-11T15:04:07Z</time>
      </trkpt>
      <trkpt lat="36.762613080456" lon="-3.861398502424">
        <ele>98</ele>
        <time>2019-01-11T15:04:11Z</time>
      </trkpt>
      <trkpt lat="36.762702180053" lon="-3.861433706404">
        <ele>99.4</ele>
        <time>2019-01-11T15:04:16Z</time>
      </trkpt>
      <trkpt lat="36.762821035395" lon="-3.861414344215">
        <ele>100.4</ele>
        <time>2019-01-11T15:04:22Z</time>
      </trkpt>
      <trkpt lat="36.762897645961" lon="-3.861342343694">
        <ele>101.4</ele>
        <time>2019-01-11T15:04:27Z</time>
      </trkpt>
      <trkpt lat="36.76293125738" lon="-3.861274869399">
        <ele>103.6</ele>
        <time>2019-01-11T15:04:30Z</time>
      </trkpt>
      <trkpt lat="36.762967718645" lon="-3.86109876568">
        <ele>103.8</ele>
        <time>2019-01-11T15:04:36Z</time>
      </trkpt>
      <trkpt lat="36.763005604833" lon="-3.860919979753">
        <ele>104.4</ele>
        <time>2019-01-11T15:04:42Z</time>
      </trkpt>
      <trkpt lat="36.763020692253" lon="-3.860778660919">
        <ele>104.2</ele>
        <time>2019-01-11T15:04:48Z</time>
      </trkpt>
      <trkpt lat="36.763006443023" lon="-3.860775475797">
        <ele>104.2</ele>
        <time>2019-01-11T15:04:54Z</time>
      </trkpt>
      <trkpt lat="36.763003425539" lon="-3.860774302331">
        <ele>104</ele>
        <time>2019-01-11T15:05:00Z</time>
      </trkpt>
      <trkpt lat="36.76300166534" lon="-3.86077270977">
        <ele>104</ele>
        <time>2019-01-11T15:05:06Z</time>
      </trkpt>
      <trkpt lat="36.763003090263" lon="-3.860772039218">
        <ele>104.4</ele>
        <time>2019-01-11T15:05:12Z</time>
      </trkpt>
      <trkpt lat="36.76299915077" lon="-3.86078444443">
        <ele>104.4</ele>
        <time>2019-01-11T15:05:15Z</time>
      </trkpt>
      <trkpt lat="36.762980962047" lon="-3.860848733603">
        <ele>104.4</ele>
        <time>2019-01-11T15:05:18Z</time>
      </trkpt>
      <trkpt lat="36.7629211991" lon="-3.861103040449">
        <ele>104.6</ele>
        <time>2019-01-11T15:05:24Z</time>
      </trkpt>
      <trkpt lat="36.76287258408" lon="-3.861360700055">
        <ele>104.2</ele>
        <time>2019-01-11T15:05:29Z</time>
      </trkpt>
      <trkpt lat="36.762886162758" lon="-3.861591286124">
        <ele>103.2</ele>
        <time>2019-01-11T15:05:35Z</time>
      </trkpt>
      <trkpt lat="36.762845845819" lon="-3.861658760419">
        <ele>102.8</ele>
        <time>2019-01-11T15:05:39Z</time>
      </trkpt>
      <trkpt lat="36.762794548591" lon="-3.86165951479">
        <ele>102.6</ele>
        <time>2019-01-11T15:05:43Z</time>
      </trkpt>
      <trkpt lat="36.762733695997" lon="-3.861595309436">
        <ele>102.6</ele>
        <time>2019-01-11T15:05:47Z</time>
      </trkpt>
      <trkpt lat="36.762727241934" lon="-3.861419205717">
        <ele>102.8</ele>
        <time>2019-01-11T15:05:53Z</time>
      </trkpt>
      <trkpt lat="36.762612493723" lon="-3.861371764163">
        <ele>101.4</ele>
        <time>2019-01-11T15:05:57Z</time>
      </trkpt>
      <trkpt lat="36.76254485179" lon="-3.861337901287">
        <ele>100.2</ele>
        <time>2019-01-11T15:05:59Z</time>
      </trkpt>
      <trkpt lat="36.762510905095" lon="-3.861309654284">
        <ele>99.8</ele>
        <time>2019-01-11T15:06:00Z</time>
      </trkpt>
      <trkpt lat="36.762427672828" lon="-3.861265146395">
        <ele>99</ele>
        <time>2019-01-11T15:06:02Z</time>
      </trkpt>
      <trkpt lat="36.762384254586" lon="-3.861238659591">
        <ele>99</ele>
        <time>2019-01-11T15:06:03Z</time>
      </trkpt>
      <trkpt lat="36.762298172473" lon="-3.861171855848">
        <ele>98.8</ele>
        <time>2019-01-11T15:06:05Z</time>
      </trkpt>
      <trkpt lat="36.762218963518" lon="-3.861068842297">
        <ele>99</ele>
        <time>2019-01-11T15:06:07Z</time>
      </trkpt>
      <trkpt lat="36.762170935231" lon="-3.860766171888">
        <ele>97.8</ele>
        <time>2019-01-11T15:06:12Z</time>
      </trkpt>
      <trkpt lat="36.762179568588" lon="-3.860680927965">
        <ele>96.6</ele>
        <time>2019-01-11T15:06:14Z</time>
      </trkpt>
      <trkpt lat="36.762192644352" lon="-3.860472218655">
        <ele>96.4</ele>
        <time>2019-01-11T15:06:20Z</time>
      </trkpt>
      <trkpt lat="36.762214102016" lon="-3.860266359191">
        <ele>97</ele>
        <time>2019-01-11T15:06:26Z</time>
      </trkpt>
      <trkpt lat="36.762224411753" lon="-3.860126381461">
        <ele>97.8</ele>
        <time>2019-01-11T15:06:30Z</time>
      </trkpt>
      <trkpt lat="36.762237990431" lon="-3.860023787005">
        <ele>99</ele>
        <time>2019-01-11T15:06:33Z</time>
      </trkpt>
      <trkpt lat="36.762250060367" lon="-3.859852209512">
        <ele>101</ele>
        <time>2019-01-11T15:06:39Z</time>
      </trkpt>
      <trkpt lat="36.762274200239" lon="-3.859679290915">
        <ele>100.4</ele>
        <time>2019-01-11T15:06:45Z</time>
      </trkpt>
      <trkpt lat="36.762280067569" lon="-3.859501091721">
        <ele>101.2</ele>
        <time>2019-01-11T15:06:51Z</time>
      </trkpt>
      <trkpt lat="36.762278558827" lon="-3.859326077649">
        <ele>101.6</ele>
        <time>2019-01-11T15:06:57Z</time>
      </trkpt>
      <trkpt lat="36.762279816112" lon="-3.859241588097">
        <ele>102.4</ele>
        <time>2019-01-11T15:07:00Z</time>
      </trkpt>
      <trkpt lat="36.762307057287" lon="-3.859078224866">
        <ele>102.6</ele>
        <time>2019-01-11T15:07:06Z</time>
      </trkpt>
      <trkpt lat="36.762327090028" lon="-3.858920393689">
        <ele>102.6</ele>
        <time>2019-01-11T15:07:12Z</time>
      </trkpt>
      <trkpt lat="36.762326670933" lon="-3.858757868648">
        <ele>104</ele>
        <time>2019-01-11T15:07:18Z</time>
      </trkpt>
      <trkpt lat="36.762334885195" lon="-3.858695926407">
        <ele>103</ele>
        <time>2019-01-11T15:07:21Z</time>
      </trkpt>
      <trkpt lat="36.762333376453" lon="-3.858745379617">
        <ele>102.8</ele>
        <time>2019-01-11T15:07:27Z</time>
      </trkpt>
      <trkpt lat="36.762331029521" lon="-3.858798856139">
        <ele>102.8</ele>
        <time>2019-01-11T15:07:29Z</time>
      </trkpt>
      <trkpt lat="36.762314098083" lon="-3.859053498261">
        <ele>102</ele>
        <time>2019-01-11T15:07:35Z</time>
      </trkpt>
      <trkpt lat="36.762310577685" lon="-3.859101526548">
        <ele>101.6</ele>
        <time>2019-01-11T15:07:36Z</time>
      </trkpt>
      <trkpt lat="36.762293562428" lon="-3.859270170376">
        <ele>100.6</ele>
        <time>2019-01-11T15:07:39Z</time>
      </trkpt>
      <trkpt lat="36.762275206067" lon="-3.859509054526">
        <ele>99.4</ele>
        <time>2019-01-11T15:07:43Z</time>
      </trkpt>
      <trkpt lat="36.762271015117" lon="-3.859568314559">
        <ele>100.4</ele>
        <time>2019-01-11T15:07:44Z</time>
      </trkpt>
      <trkpt lat="36.762261795027" lon="-3.859743747726">
        <ele>97.6</ele>
        <time>2019-01-11T15:07:47Z</time>
      </trkpt>
      <trkpt lat="36.762237487517" lon="-3.860064523039">
        <ele>96.4</ele>
        <time>2019-01-11T15:07:53Z</time>
      </trkpt>
      <trkpt lat="36.762229524712" lon="-3.860395775727">
        <ele>95.4</ele>
        <time>2019-01-11T15:07:59Z</time>
      </trkpt>
      <trkpt lat="36.762229859988" lon="-3.860452605009">
        <ele>95</ele>
        <time>2019-01-11T15:08:00Z</time>
      </trkpt>
      <trkpt lat="36.76222131045" lon="-3.860629966013">
        <ele>94.6</ele>
        <time>2019-01-11T15:08:03Z</time>
      </trkpt>
      <trkpt lat="36.762204881926" lon="-3.860749827183">
        <ele>96.2</ele>
        <time>2019-01-11T15:08:05Z</time>
      </trkpt>
      <trkpt lat="36.762194739827" lon="-3.860868011973">
        <ele>95.2</ele>
        <time>2019-01-11T15:08:07Z</time>
      </trkpt>
      <trkpt lat="36.762203457003" lon="-3.860986867315">
        <ele>94.2</ele>
        <time>2019-01-11T15:08:09Z</time>
      </trkpt>
      <trkpt lat="36.762296160817" lon="-3.861160037369">
        <ele>95</ele>
        <time>2019-01-11T15:08:14Z</time>
      </trkpt>
      <trkpt lat="36.762412669227" lon="-3.861252908821">
        <ele>96.2</ele>
        <time>2019-01-11T15:08:20Z</time>
      </trkpt>
      <trkpt lat="36.762430690312" lon="-3.861269253526">
        <ele>96.4</ele>
        <time>2019-01-11T15:08:21Z</time>
      </trkpt>
      <trkpt lat="36.762531273112" lon="-3.861337901287">
        <ele>97.8</ele>
        <time>2019-01-11T15:08:26Z</time>
      </trkpt>
      <trkpt lat="36.76260352509" lon="-3.86137704476">
        <ele>99</ele>
        <time>2019-01-11T15:08:30Z</time>
      </trkpt>
      <trkpt lat="36.762712657428" lon="-3.861423229029">
        <ele>99.8</ele>
        <time>2019-01-11T15:08:36Z</time>
      </trkpt>
      <trkpt lat="36.762750878892" lon="-3.861429263997">
        <ele>100.4</ele>
        <time>2019-01-11T15:08:38Z</time>
      </trkpt>
      <trkpt lat="36.762819275196" lon="-3.861437981173">
        <ele>101.4</ele>
        <time>2019-01-11T15:08:42Z</time>
      </trkpt>
      <trkpt lat="36.762915750865" lon="-3.861474107162">
        <ele>102.2</ele>
        <time>2019-01-11T15:08:48Z</time>
      </trkpt>
      <trkpt lat="36.762925138593" lon="-3.861514759377">
        <ele>102.6</ele>
        <time>2019-01-11T15:08:50Z</time>
      </trkpt>
      <trkpt lat="36.762895801943" lon="-3.861621125688">
        <ele>102.8</ele>
        <time>2019-01-11T15:08:56Z</time>
      </trkpt>
      <trkpt lat="36.762819023739" lon="-3.861668818699">
        <ele>102.6</ele>
        <time>2019-01-11T15:09:02Z</time>
      </trkpt>
      <trkpt lat="36.762804439233" lon="-3.861671752364">
        <ele>102.6</ele>
        <time>2019-01-11T15:09:03Z</time>
      </trkpt>
      <trkpt lat="36.762734450368" lon="-3.86160167968">
        <ele>103.2</ele>
        <time>2019-01-11T15:09:09Z</time>
      </trkpt>
      <trkpt lat="36.762690193936" lon="-3.861417948432">
        <ele>102.8</ele>
        <time>2019-01-11T15:09:15Z</time>
      </trkpt>
      <trkpt lat="36.762556251174" lon="-3.861354748906">
        <ele>101.2</ele>
        <time>2019-01-11T15:09:19Z</time>
      </trkpt>
      <trkpt lat="36.762485088843" lon="-3.861300937108">
        <ele>100.2</ele>
        <time>2019-01-11T15:09:21Z</time>
      </trkpt>
      <trkpt lat="36.762445274818" lon="-3.861280317634">
        <ele>100</ele>
        <time>2019-01-11T15:09:22Z</time>
      </trkpt>
      <trkpt lat="36.762405544612" lon="-3.861257686504">
        <ele>99.4</ele>
        <time>2019-01-11T15:09:23Z</time>
      </trkpt>
      <trkpt lat="36.762366149682" lon="-3.861231618795">
        <ele>98.6</ele>
        <time>2019-01-11T15:09:24Z</time>
      </trkpt>
      <trkpt lat="36.762288784745" lon="-3.861173196952">
        <ele>97.4</ele>
        <time>2019-01-11T15:09:26Z</time>
      </trkpt>
      <trkpt lat="36.762227513056" lon="-3.861085270821">
        <ele>97</ele>
        <time>2019-01-11T15:09:28Z</time>
      </trkpt>
      <trkpt lat="36.762182418434" lon="-3.860975970845">
        <ele>97</ele>
        <time>2019-01-11T15:09:30Z</time>
      </trkpt>
      <trkpt lat="36.762167833928" lon="-3.860864240118">
        <ele>97</ele>
        <time>2019-01-11T15:09:32Z</time>
      </trkpt>
      <trkpt lat="36.762183088986" lon="-3.860739685084">
        <ele>96.2</ele>
        <time>2019-01-11T15:09:35Z</time>
      </trkpt>
      <trkpt lat="36.762227093961" lon="-3.860561234433">
        <ele>96.6</ele>
        <time>2019-01-11T15:09:41Z</time>
      </trkpt>
      <trkpt lat="36.762224411753" lon="-3.860369959475">
        <ele>96.6</ele>
        <time>2019-01-11T15:09:47Z</time>
      </trkpt>
      <trkpt lat="36.762249222177" lon="-3.860221851302">
        <ele>97.4</ele>
        <time>2019-01-11T15:09:52Z</time>
      </trkpt>
      <trkpt lat="36.762244947408" lon="-3.860038790606">
        <ele>97.6</ele>
        <time>2019-01-11T15:09:58Z</time>
      </trkpt>
      <trkpt lat="36.762256262973" lon="-3.85996050366">
        <ele>98.4</ele>
        <time>2019-01-11T15:10:01Z</time>
      </trkpt>
      <trkpt lat="36.762277720637" lon="-3.859796302239">
        <ele>99</ele>
        <time>2019-01-11T15:10:07Z</time>
      </trkpt>
      <trkpt lat="36.76227914556" lon="-3.859767300865">
        <ele>99.2</ele>
        <time>2019-01-11T15:10:08Z</time>
      </trkpt>
      <trkpt lat="36.762298675387" lon="-3.85963193318">
        <ele>98.2</ele>
        <time>2019-01-11T15:10:14Z</time>
      </trkpt>
      <trkpt lat="36.762280151388" lon="-3.859679793829">
        <ele>98</ele>
        <time>2019-01-11T15:10:19Z</time>
      </trkpt>
      <trkpt lat="36.762249725091" lon="-3.859867380751">
        <ele>97.6</ele>
        <time>2019-01-11T15:10:25Z</time>
      </trkpt>
      <trkpt lat="36.762241007915" lon="-3.85998816393">
        <ele>97.4</ele>
        <time>2019-01-11T15:10:28Z</time>
      </trkpt>
      <trkpt lat="36.762221478088" lon="-3.860292762176">
        <ele>96.4</ele>
        <time>2019-01-11T15:10:34Z</time>
      </trkpt>
      <trkpt lat="36.76221628131" lon="-3.86035361477">
        <ele>96.2</ele>
        <time>2019-01-11T15:10:35Z</time>
      </trkpt>
      <trkpt lat="36.762194236913" lon="-3.860672629884">
        <ele>95.2</ele>
        <time>2019-01-11T15:10:40Z</time>
      </trkpt>
      <trkpt lat="36.762190716515" lon="-3.860744546586">
        <ele>96.2</ele>
        <time>2019-01-11T15:10:41Z</time>
      </trkpt>
      <trkpt lat="36.76219281199" lon="-3.860884775773">
        <ele>95.6</ele>
        <time>2019-01-11T15:10:43Z</time>
      </trkpt>
      <trkpt lat="36.762205217202" lon="-3.86094789148">
        <ele>95</ele>
        <time>2019-01-11T15:10:44Z</time>
      </trkpt>
      <trkpt lat="36.762224830848" lon="-3.861005558952">
        <ele>94.8</ele>
        <time>2019-01-11T15:10:45Z</time>
      </trkpt>
      <trkpt lat="36.762348044778" lon="-3.861188032915">
        <ele>95.6</ele>
        <time>2019-01-11T15:10:51Z</time>
      </trkpt>
      <trkpt lat="36.762382578206" lon="-3.861209155303">
        <ele>96.2</ele>
        <time>2019-01-11T15:10:53Z</time>
      </trkpt>
      <trkpt lat="36.762444688085" lon="-3.861266571318">
        <ele>97.4</ele>
        <time>2019-01-11T15:10:57Z</time>
      </trkpt>
      <trkpt lat="36.762539152098" lon="-3.861340499676">
        <ele>98</ele>
        <time>2019-01-11T15:11:03Z</time>
      </trkpt>
      <trkpt lat="36.762647781522" lon="-3.86139967589">
        <ele>98.2</ele>
        <time>2019-01-11T15:11:09Z</time>
      </trkpt>
      <trkpt lat="36.762675190335" lon="-3.861414176577">
        <ele>98.4</ele>
        <time>2019-01-11T15:11:11Z</time>
      </trkpt>
      <trkpt lat="36.762779628809" lon="-3.861403363926">
        <ele>99.4</ele>
        <time>2019-01-11T15:11:17Z</time>
      </trkpt>
      <trkpt lat="36.762800080645" lon="-3.861402693374">
        <ele>99.6</ele>
        <time>2019-01-11T15:11:18Z</time>
      </trkpt>
      <trkpt lat="36.762867638759" lon="-3.861364136634">
        <ele>100.6</ele>
        <time>2019-01-11T15:11:22Z</time>
      </trkpt>
      <trkpt lat="36.762876607392" lon="-3.861343349522">
        <ele>100.8</ele>
        <time>2019-01-11T15:11:23Z</time>
      </trkpt>
      <trkpt lat="36.762946931533" lon="-3.861196917729">
        <ele>101.6</ele>
        <time>2019-01-11T15:11:29Z</time>
      </trkpt>
      <trkpt lat="36.762951457759" lon="-3.861167161984">
        <ele>101.6</ele>
        <time>2019-01-11T15:11:30Z</time>
      </trkpt>
      <trkpt lat="36.762964365885" lon="-3.86107697274">
        <ele>101.8</ele>
        <time>2019-01-11T15:11:33Z</time>
      </trkpt>
      <trkpt lat="36.762987751386" lon="-3.860888799085">
        <ele>101.8</ele>
        <time>2019-01-11T15:11:39Z</time>
      </trkpt>
      <trkpt lat="36.763001330064" lon="-3.860832472717">
        <ele>102</ele>
        <time>2019-01-11T15:11:41Z</time>
      </trkpt>
      <trkpt lat="36.763034438569" lon="-3.860652764781">
        <ele>102.6</ele>
        <time>2019-01-11T15:11:47Z</time>
      </trkpt>
      <trkpt lat="36.763043407202" lon="-3.860559725691">
        <ele>103</ele>
        <time>2019-01-11T15:11:50Z</time>
      </trkpt>
      <trkpt lat="36.763061595925" lon="-3.860363337774">
        <ele>103.2</ele>
        <time>2019-01-11T15:11:56Z</time>
      </trkpt>
      <trkpt lat="36.763083556503" lon="-3.860153706455">
        <ele>103.6</ele>
        <time>2019-01-11T15:12:02Z</time>
      </trkpt>
      <trkpt lat="36.763102164321" lon="-3.859967292999">
        <ele>103.8</ele>
        <time>2019-01-11T15:12:08Z</time>
      </trkpt>
      <trkpt lat="36.763111887325" lon="-3.859791943651">
        <ele>104</ele>
        <time>2019-01-11T15:12:14Z</time>
      </trkpt>
      <trkpt lat="36.76311482099" lon="-3.859755566205">
        <ele>104.2</ele>
        <time>2019-01-11T15:12:15Z</time>
      </trkpt>
      <trkpt lat="36.76312068832" lon="-3.859579462486">
        <ele>104.6</ele>
        <time>2019-01-11T15:12:21Z</time>
      </trkpt>
      <trkpt lat="36.763124543994" lon="-3.859543504135">
        <ele>104.6</ele>
        <time>2019-01-11T15:12:23Z</time>
      </trkpt>
      <trkpt lat="36.763139379957" lon="-3.859559597383">
        <ele>104.4</ele>
        <time>2019-01-11T15:12:27Z</time>
      </trkpt>
      <trkpt lat="36.763142062165" lon="-3.859603769996">
        <ele>104.4</ele>
        <time>2019-01-11T15:12:29Z</time>
      </trkpt>
      <trkpt lat="36.763121442691" lon="-3.859841145404">
        <ele>104.2</ele>
        <time>2019-01-11T15:12:35Z</time>
      </trkpt>
      <trkpt lat="36.763096716086" lon="-3.860128812212">
        <ele>103.8</ele>
        <time>2019-01-11T15:12:41Z</time>
      </trkpt>
      <trkpt lat="36.763059081355" lon="-3.860389740759">
        <ele>103.6</ele>
        <time>2019-01-11T15:12:46Z</time>
      </trkpt>
      <trkpt lat="36.76301759095" lon="-3.860624182502">
        <ele>103.2</ele>
        <time>2019-01-11T15:12:51Z</time>
      </trkpt>
      <trkpt lat="36.762948440275" lon="-3.860904137962">
        <ele>102.4</ele>
        <time>2019-01-11T15:12:57Z</time>
      </trkpt>
      <trkpt lat="36.762900328169" lon="-3.861096837843">
        <ele>102</ele>
        <time>2019-01-11T15:13:01Z</time>
      </trkpt>
      <trkpt lat="36.76287174589" lon="-3.861401687546">
        <ele>101.2</ele>
        <time>2019-01-11T15:13:07Z</time>
      </trkpt>
      <trkpt lat="36.762892533002" lon="-3.861547113511">
        <ele>101</ele>
        <time>2019-01-11T15:13:11Z</time>
      </trkpt>
      <trkpt lat="36.762880714523" lon="-3.861601847318">
        <ele>101</ele>
        <time>2019-01-11T15:13:13Z</time>
      </trkpt>
      <trkpt lat="36.762819107558" lon="-3.861700167005">
        <ele>100.8</ele>
        <time>2019-01-11T15:13:19Z</time>
      </trkpt>
      <trkpt lat="36.762759596068" lon="-3.861661861722">
        <ele>100.8</ele>
        <time>2019-01-11T15:13:23Z</time>
      </trkpt>
      <trkpt lat="36.762762865009" lon="-3.861461869588">
        <ele>100.8</ele>
        <time>2019-01-11T15:13:29Z</time>
      </trkpt>
      <trkpt lat="36.76275691386" lon="-3.861426078875">
        <ele>100.4</ele>
        <time>2019-01-11T15:13:31Z</time>
      </trkpt>
      <trkpt lat="36.762727493391" lon="-3.861409985627">
        <ele>99.8</ele>
        <time>2019-01-11T15:13:33Z</time>
      </trkpt>
      <trkpt lat="36.762646524237" lon="-3.861414344215">
        <ele>98.6</ele>
        <time>2019-01-11T15:13:36Z</time>
      </trkpt>
      <trkpt lat="36.762523645583" lon="-3.861307726447">
        <ele>98</ele>
        <time>2019-01-11T15:13:40Z</time>
      </trkpt>
      <trkpt lat="36.762440748592" lon="-3.861257602685">
        <ele>97.6</ele>
        <time>2019-01-11T15:13:42Z</time>
      </trkpt>
      <trkpt lat="36.762345865484" lon="-3.861202365964">
        <ele>97.2</ele>
        <time>2019-01-11T15:13:44Z</time>
      </trkpt>
      <trkpt lat="36.762251317652" lon="-3.861116032394">
        <ele>97</ele>
        <time>2019-01-11T15:13:46Z</time>
      </trkpt>
      <trkpt lat="36.762210749256" lon="-3.861059454569">
        <ele>96.6</ele>
        <time>2019-01-11T15:13:47Z</time>
      </trkpt>
      <trkpt lat="36.76218023914" lon="-3.860992986102">
        <ele>96.4</ele>
        <time>2019-01-11T15:13:48Z</time>
      </trkpt>
      <trkpt lat="36.762156350725" lon="-3.860859965349">
        <ele>96.2</ele>
        <time>2019-01-11T15:13:50Z</time>
      </trkpt>
      <trkpt lat="36.762170013222" lon="-3.860712863004">
        <ele>97.6</ele>
        <time>2019-01-11T15:13:53Z</time>
      </trkpt>
      <trkpt lat="36.762192728171" lon="-3.86051454725">
        <ele>98.4</ele>
        <time>2019-01-11T15:13:59Z</time>
      </trkpt>
      <trkpt lat="36.762201948261" lon="-3.860313046374">
        <ele>98.6</ele>
        <time>2019-01-11T15:14:05Z</time>
      </trkpt>
      <trkpt lat="36.762205803935" lon="-3.860280859878">
        <ele>98.8</ele>
        <time>2019-01-11T15:14:06Z</time>
      </trkpt>
      <trkpt lat="36.762212677093" lon="-3.860185222399">
        <ele>100.2</ele>
        <time>2019-01-11T15:14:09Z</time>
      </trkpt>
      <trkpt lat="36.762226507228" lon="-3.859995372364">
        <ele>100.6</ele>
        <time>2019-01-11T15:14:15Z</time>
      </trkpt>
      <trkpt lat="36.76223723606" lon="-3.859909541708">
        <ele>101.2</ele>
        <time>2019-01-11T15:14:18Z</time>
      </trkpt>
      <trkpt lat="36.76224310339" lon="-3.859846006906">
        <ele>103</ele>
        <time>2019-01-11T15:14:20Z</time>
      </trkpt>
      <trkpt lat="36.762253077851" lon="-3.859787082149">
        <ele>104.6</ele>
        <time>2019-01-11T15:14:22Z</time>
      </trkpt>
      <trkpt lat="36.762265063968" lon="-3.859615337018">
        <ele>104.4</ele>
        <time>2019-01-11T15:14:28Z</time>
      </trkpt>
      <trkpt lat="36.762269171099" lon="-3.859575439174">
        <ele>104.4</ele>
        <time>2019-01-11T15:14:34Z</time>
      </trkpt>
      <trkpt lat="36.762263471407" lon="-3.859642997288">
        <ele>104.4</ele>
        <time>2019-01-11T15:14:37Z</time>
      </trkpt>
      <trkpt lat="36.76223723606" lon="-3.859875092099">
        <ele>104</ele>
        <time>2019-01-11T15:14:43Z</time>
      </trkpt>
      <trkpt lat="36.762222483916" lon="-3.86004516085">
        <ele>103.4</ele>
        <time>2019-01-11T15:14:46Z</time>
      </trkpt>
      <trkpt lat="36.762204295193" lon="-3.860291504891">
        <ele>102.2</ele>
        <time>2019-01-11T15:14:50Z</time>
      </trkpt>
      <trkpt lat="36.762193314904" lon="-3.860564168098">
        <ele>101.2</ele>
        <time>2019-01-11T15:14:54Z</time>
      </trkpt>
      <trkpt lat="36.762183424262" lon="-3.86083305945">
        <ele>99.6</ele>
        <time>2019-01-11T15:14:58Z</time>
      </trkpt>
      <trkpt lat="36.762184262452" lon="-3.860899527917">
        <ele>99.2</ele>
        <time>2019-01-11T15:14:59Z</time>
      </trkpt>
      <trkpt lat="36.762209994885" lon="-3.861018802354">
        <ele>98.4</ele>
        <time>2019-01-11T15:15:01Z</time>
      </trkpt>
      <trkpt lat="36.762333376453" lon="-3.861187697639">
        <ele>99</ele>
        <time>2019-01-11T15:15:07Z</time>
      </trkpt>
      <trkpt lat="36.762362880741" lon="-3.861222566343">
        <ele>99.6</ele>
        <time>2019-01-11T15:15:09Z</time>
      </trkpt>
      <trkpt lat="36.762456925659" lon="-3.861280904367">
        <ele>100.8</ele>
        <time>2019-01-11T15:15:14Z</time>
      </trkpt>
      <trkpt lat="36.762560693581" lon="-3.861360700055">
        <ele>101.8</ele>
        <time>2019-01-11T15:15:20Z</time>
      </trkpt>
      <trkpt lat="36.76257837939" lon="-3.861374362552">
        <ele>102</ele>
        <time>2019-01-11T15:15:21Z</time>
      </trkpt>
      <trkpt lat="36.762639483441" lon="-3.861415936776">
        <ele>103</ele>
        <time>2019-01-11T15:15:25Z</time>
      </trkpt>
      <trkpt lat="36.762719698224" lon="-3.861430437463">
        <ele>103.8</ele>
        <time>2019-01-11T15:15:30Z</time>
      </trkpt>
      <trkpt lat="36.762750040702" lon="-3.861427252341">
        <ele>104.2</ele>
        <time>2019-01-11T15:15:32Z</time>
      </trkpt>
      <trkpt lat="36.762831345132" lon="-3.861431862386">
        <ele>105.2</ele>
        <time>2019-01-11T15:15:37Z</time>
      </trkpt>
      <trkpt lat="36.762845929638" lon="-3.861431024196">
        <ele>105.4</ele>
        <time>2019-01-11T15:15:38Z</time>
      </trkpt>
      <trkpt lat="36.762890353708" lon="-3.861290124457">
        <ele>105.8</ele>
        <time>2019-01-11T15:15:44Z</time>
      </trkpt>
      <trkpt lat="36.762910805544" lon="-3.861208736208">
        <ele>106.2</ele>
        <time>2019-01-11T15:15:47Z</time>
      </trkpt>
      <trkpt lat="36.762967970102" lon="-3.861035649973">
        <ele>106.6</ele>
        <time>2019-01-11T15:15:53Z</time>
      </trkpt>
      <trkpt lat="36.763008622317" lon="-3.860917549002">
        <ele>107.2</ele>
        <time>2019-01-11T15:15:57Z</time>
      </trkpt>
      <trkpt lat="36.763024883203" lon="-3.860708672054">
        <ele>107.6</ele>
        <time>2019-01-11T15:16:03Z</time>
      </trkpt>
      <trkpt lat="36.763051537645" lon="-3.860514714888">
        <ele>108</ele>
        <time>2019-01-11T15:16:09Z</time>
      </trkpt>
      <trkpt lat="36.763059584269" lon="-3.860415054097">
        <ele>108.2</ele>
        <time>2019-01-11T15:16:12Z</time>
      </trkpt>
      <trkpt lat="36.763078192087" lon="-3.860206763882">
        <ele>108.4</ele>
        <time>2019-01-11T15:16:18Z</time>
      </trkpt>
      <trkpt lat="36.763101158493" lon="-3.860004760092">
        <ele>108.6</ele>
        <time>2019-01-11T15:16:24Z</time>
      </trkpt>
      <trkpt lat="36.763101242312" lon="-3.859813904229">
        <ele>109</ele>
        <time>2019-01-11T15:16:30Z</time>
      </trkpt>
      <trkpt lat="36.763108534565" lon="-3.85971491399">
        <ele>109.4</ele>
        <time>2019-01-11T15:16:33Z</time>
      </trkpt>
      <trkpt lat="36.763132758256" lon="-3.859517604064">
        <ele>109.8</ele>
        <time>2019-01-11T15:16:39Z</time>
      </trkpt>
      <trkpt lat="36.763149857332" lon="-3.859336555024">
        <ele>110.6</ele>
        <time>2019-01-11T15:16:45Z</time>
      </trkpt>
      <trkpt lat="36.76316092144" lon="-3.859266566159">
        <ele>111</ele>
        <time>2019-01-11T15:16:51Z</time>
      </trkpt>
      <trkpt lat="36.763163519829" lon="-3.859278300819">
        <ele>111</ele>
        <time>2019-01-11T15:16:52Z</time>
      </trkpt>
      <trkpt lat="36.763165447666" lon="-3.859330436237">
        <ele>111</ele>
        <time>2019-01-11T15:16:54Z</time>
      </trkpt>
      <trkpt lat="36.763141391613" lon="-3.859594298449">
        <ele>109.6</ele>
        <time>2019-01-11T15:17:00Z</time>
      </trkpt>
      <trkpt lat="36.763135524283" lon="-3.859640817994">
        <ele>109.4</ele>
        <time>2019-01-11T15:17:01Z</time>
      </trkpt>
      <trkpt lat="36.763129992229" lon="-3.859686499349">
        <ele>107.6</ele>
        <time>2019-01-11T15:17:02Z</time>
      </trkpt>
      <trkpt lat="36.76311314461" lon="-3.859966873904">
        <ele>108</ele>
        <time>2019-01-11T15:17:08Z</time>
      </trkpt>
      <trkpt lat="36.763086406349" lon="-3.860221432207">
        <ele>108</ele>
        <time>2019-01-11T15:17:13Z</time>
      </trkpt>
      <trkpt lat="36.763072660033" lon="-3.860328385251">
        <ele>108</ele>
        <time>2019-01-11T15:17:15Z</time>
      </trkpt>
      <trkpt lat="36.763027900687" lon="-3.860535334362">
        <ele>107.8</ele>
        <time>2019-01-11T15:17:19Z</time>
      </trkpt>
      <trkpt lat="36.763006275385" lon="-3.860636000981">
        <ele>107.2</ele>
        <time>2019-01-11T15:17:21Z</time>
      </trkpt>
      <trkpt lat="36.762947937361" lon="-3.86094034777">
        <ele>106.8</ele>
        <time>2019-01-11T15:17:27Z</time>
      </trkpt>
      <trkpt lat="36.762882558541" lon="-3.861194906073">
        <ele>106.6</ele>
        <time>2019-01-11T15:17:32Z</time>
      </trkpt>
      <trkpt lat="36.762873589908" lon="-3.861245532749">
        <ele>106.4</ele>
        <time>2019-01-11T15:17:33Z</time>
      </trkpt>
      <trkpt lat="36.762858586307" lon="-3.861356173829">
        <ele>105.6</ele>
        <time>2019-01-11T15:17:35Z</time>
      </trkpt>
      <trkpt lat="36.762857664298" lon="-3.861410739998">
        <ele>105.4</ele>
        <time>2019-01-11T15:17:36Z</time>
      </trkpt>
      <trkpt lat="36.762867890216" lon="-3.861631938339">
        <ele>105.6</ele>
        <time>2019-01-11T15:17:42Z</time>
      </trkpt>
      <trkpt lat="36.762780634637" lon="-3.861697484797">
        <ele>104.8</ele>
        <time>2019-01-11T15:17:48Z</time>
      </trkpt>
      <trkpt lat="36.762735707653" lon="-3.861625065181">
        <ele>105</ele>
        <time>2019-01-11T15:17:52Z</time>
      </trkpt>
      <trkpt lat="36.762733360721" lon="-3.861437729716">
        <ele>105.4</ele>
        <time>2019-01-11T15:17:58Z</time>
      </trkpt>
      <trkpt lat="36.76271332798" lon="-3.861416774966">
        <ele>105.4</ele>
        <time>2019-01-11T15:17:59Z</time>
      </trkpt>
      <trkpt lat="36.762586509833" lon="-3.861380481339">
        <ele>104.2</ele>
        <time>2019-01-11T15:18:03Z</time>
      </trkpt>
      <trkpt lat="36.76247947297" lon="-3.861292974303">
        <ele>103.2</ele>
        <time>2019-01-11T15:18:06Z</time>
      </trkpt>
      <trkpt lat="36.762352403366" lon="-3.861213010977">
        <ele>102.2</ele>
        <time>2019-01-11T15:18:09Z</time>
      </trkpt>
      <trkpt lat="36.762265566882" lon="-3.861146123415">
        <ele>101.4</ele>
        <time>2019-01-11T15:18:11Z</time>
      </trkpt>
      <trkpt lat="36.762193482542" lon="-3.861044786244">
        <ele>101.2</ele>
        <time>2019-01-11T15:18:13Z</time>
      </trkpt>
      <trkpt lat="36.762172192516" lon="-3.860984101288">
        <ele>101</ele>
        <time>2019-01-11T15:18:14Z</time>
      </trkpt>
      <trkpt lat="36.762160290218" lon="-3.860916626993">
        <ele>101</ele>
        <time>2019-01-11T15:18:15Z</time>
      </trkpt>
      <trkpt lat="36.762161547503" lon="-3.860749743364">
        <ele>99.8</ele>
        <time>2019-01-11T15:18:18Z</time>
      </trkpt>
      <trkpt lat="36.762163056245" lon="-3.860608759806">
        <ele>98.6</ele>
        <time>2019-01-11T15:18:22Z</time>
      </trkpt>
      <trkpt lat="36.762170097041" lon="-3.860418239219">
        <ele>98.8</ele>
        <time>2019-01-11T15:18:28Z</time>
      </trkpt>
      <trkpt lat="36.762176718742" lon="-3.860249092477">
        <ele>99.8</ele>
        <time>2019-01-11T15:18:34Z</time>
      </trkpt>
      <trkpt lat="36.762189710687" lon="-3.860093189137">
        <ele>100.8</ele>
        <time>2019-01-11T15:18:39Z</time>
      </trkpt>
      <trkpt lat="36.762198763139" lon="-3.859953630502">
        <ele>101.2</ele>
        <time>2019-01-11T15:18:45Z</time>
      </trkpt>
      <trkpt lat="36.762213180007" lon="-3.859897890867">
        <ele>101.6</ele>
        <time>2019-01-11T15:18:51Z</time>
      </trkpt>
      <trkpt lat="36.762218125328" lon="-3.859820274473">
        <ele>102</ele>
        <time>2019-01-11T15:18:54Z</time>
      </trkpt>
      <trkpt lat="36.762232374558" lon="-3.859679961467">
        <ele>103</ele>
        <time>2019-01-11T15:18:59Z</time>
      </trkpt>
      <trkpt lat="36.762244444494" lon="-3.859518609892">
        <ele>103.6</ele>
        <time>2019-01-11T15:19:05Z</time>
      </trkpt>
      <trkpt lat="36.762256262973" lon="-3.859414255237">
        <ele>104.2</ele>
        <time>2019-01-11T15:19:09Z</time>
      </trkpt>
      <trkpt lat="36.762268668185" lon="-3.859264889779">
        <ele>105</ele>
        <time>2019-01-11T15:19:15Z</time>
      </trkpt>
      <trkpt lat="36.762273613506" lon="-3.859206635574">
        <ele>105.2</ele>
        <time>2019-01-11T15:19:17Z</time>
      </trkpt>
      <trkpt lat="36.762288533288" lon="-3.859042434153">
        <ele>106</ele>
        <time>2019-01-11T15:19:23Z</time>
      </trkpt>
      <trkpt lat="36.762293646247" lon="-3.859019132471">
        <ele>106.2</ele>
        <time>2019-01-11T15:19:24Z</time>
      </trkpt>
      <trkpt lat="36.762297166645" lon="-3.858912263246">
        <ele>106.6</ele>
        <time>2019-01-11T15:19:28Z</time>
      </trkpt>
      <trkpt lat="36.762294149161" lon="-3.858780080683">
        <ele>107.2</ele>
        <time>2019-01-11T15:19:33Z</time>
      </trkpt>
      <trkpt lat="36.762288868564" lon="-3.858715875329">
        <ele>106.4</ele>
        <time>2019-01-11T15:19:36Z</time>
      </trkpt>
      <trkpt lat="36.762283252691" lon="-3.858696010226">
        <ele>106.2</ele>
        <time>2019-01-11T15:19:39Z</time>
      </trkpt>
      <trkpt lat="36.762279648474" lon="-3.858695088217">
        <ele>106</ele>
        <time>2019-01-11T15:19:45Z</time>
      </trkpt>
      <trkpt lat="36.762281324854" lon="-3.858758706838">
        <ele>106.2</ele>
        <time>2019-01-11T15:19:50Z</time>
      </trkpt>
      <trkpt lat="36.762301525233" lon="-3.858893571609">
        <ele>106.6</ele>
        <time>2019-01-11T15:19:55Z</time>
      </trkpt>
      <trkpt lat="36.762293562428" lon="-3.859076883762">
        <ele>106.2</ele>
        <time>2019-01-11T15:20:01Z</time>
      </trkpt>
      <trkpt lat="36.762264812511" lon="-3.85926648234">
        <ele>105</ele>
        <time>2019-01-11T15:20:07Z</time>
      </trkpt>
      <trkpt lat="36.762272272402" lon="-3.85947602984">
        <ele>104</ele>
        <time>2019-01-11T15:20:13Z</time>
      </trkpt>
      <trkpt lat="36.762271015117" lon="-3.859573762794">
        <ele>104</ele>
        <time>2019-01-11T15:20:16Z</time>
      </trkpt>
      <trkpt lat="36.762260621561" lon="-3.859769647797">
        <ele>103</ele>
        <time>2019-01-11T15:20:22Z</time>
      </trkpt>
      <trkpt lat="36.762259280457" lon="-3.859804097406">
        <ele>103</ele>
        <time>2019-01-11T15:20:23Z</time>
      </trkpt>
      <trkpt lat="36.762256346792" lon="-3.859873164262">
        <ele>101</ele>
        <time>2019-01-11T15:20:25Z</time>
      </trkpt>
      <trkpt lat="36.762236230232" lon="-3.860080783925">
        <ele>100.6</ele>
        <time>2019-01-11T15:20:31Z</time>
      </trkpt>
      <trkpt lat="36.762228435065" lon="-3.860324529577">
        <ele>100.2</ele>
        <time>2019-01-11T15:20:37Z</time>
      </trkpt>
      <trkpt lat="36.762222064821" lon="-3.860416562839">
        <ele>100</ele>
        <time>2019-01-11T15:20:39Z</time>
      </trkpt>
      <trkpt lat="36.762213934378" lon="-3.860611609652">
        <ele>98.6</ele>
        <time>2019-01-11T15:20:43Z</time>
      </trkpt>
      <trkpt lat="36.762207983229" lon="-3.860722250732">
        <ele>96.6</ele>
        <time>2019-01-11T15:20:45Z</time>
      </trkpt>
      <trkpt lat="36.762209072876" lon="-3.860841357531">
        <ele>96</ele>
        <time>2019-01-11T15:20:47Z</time>
      </trkpt>
      <trkpt lat="36.762230027626" lon="-3.860962056891">
        <ele>96.6</ele>
        <time>2019-01-11T15:20:49Z</time>
      </trkpt>
      <trkpt lat="36.762271350393" lon="-3.861056688542">
        <ele>97.6</ele>
        <time>2019-01-11T15:20:51Z</time>
      </trkpt>
      <trkpt lat="36.762381991473" lon="-3.861186105078">
        <ele>99.4</ele>
        <time>2019-01-11T15:20:56Z</time>
      </trkpt>
      <trkpt lat="36.762452986166" lon="-3.861256429219">
        <ele>100.4</ele>
        <time>2019-01-11T15:21:00Z</time>
      </trkpt>
      <trkpt lat="36.762556167355" lon="-3.861358436942">
        <ele>101</ele>
        <time>2019-01-11T15:21:06Z</time>
      </trkpt>
      <trkpt lat="36.762615343569" lon="-3.861399172976">
        <ele>101.6</ele>
        <time>2019-01-11T15:21:09Z</time>
      </trkpt>
      <trkpt lat="36.762697737646" lon="-3.861438987001">
        <ele>102.6</ele>
        <time>2019-01-11T15:21:14Z</time>
      </trkpt>
      <trkpt lat="36.762784238854" lon="-3.861435298965">
        <ele>103.8</ele>
        <time>2019-01-11T15:21:19Z</time>
      </trkpt>
      <trkpt lat="36.762797566075" lon="-3.861425827418">
        <ele>103.8</ele>
        <time>2019-01-11T15:21:20Z</time>
      </trkpt>
      <trkpt lat="36.762872081166" lon="-3.861404118297">
        <ele>104.8</ele>
        <time>2019-01-11T15:21:24Z</time>
      </trkpt>
      <trkpt lat="36.762885240749" lon="-3.861392215999">
        <ele>105</ele>
        <time>2019-01-11T15:21:25Z</time>
      </trkpt>
      <trkpt lat="36.762923126937" lon="-3.86126053635">
        <ele>103.6</ele>
        <time>2019-01-11T15:21:30Z</time>
      </trkpt>
      <trkpt lat="36.762966880455" lon="-3.86111217672">
        <ele>103.8</ele>
        <time>2019-01-11T15:21:36Z</time>
      </trkpt>
      <trkpt lat="36.762970736129" lon="-3.86105434161">
        <ele>104.6</ele>
        <time>2019-01-11T15:21:38Z</time>
      </trkpt>
      <trkpt lat="36.762999486046" lon="-3.860860468263">
        <ele>104.6</ele>
        <time>2019-01-11T15:21:44Z</time>
      </trkpt>
      <trkpt lat="36.763033432741" lon="-3.860660811405">
        <ele>105</ele>
        <time>2019-01-11T15:21:50Z</time>
      </trkpt>
      <trkpt lat="36.763050028903" lon="-3.860448078783">
        <ele>105.6</ele>
        <time>2019-01-11T15:21:56Z</time>
      </trkpt>
      <trkpt lat="36.763061595925" lon="-3.860311789089">
        <ele>103.6</ele>
        <time>2019-01-11T15:22:00Z</time>
      </trkpt>
      <trkpt lat="36.763074336413" lon="-3.860210871013">
        <ele>104.6</ele>
        <time>2019-01-11T15:22:03Z</time>
      </trkpt>
      <trkpt lat="36.763101158493" lon="-3.860008783404">
        <ele>104.6</ele>
        <time>2019-01-11T15:22:09Z</time>
      </trkpt>
      <trkpt lat="36.763106187633" lon="-3.859814490962">
        <ele>105</ele>
        <time>2019-01-11T15:22:15Z</time>
      </trkpt>
      <trkpt lat="36.763121275053" lon="-3.859600752512">
        <ele>105.2</ele>
        <time>2019-01-11T15:22:21Z</time>
      </trkpt>
      <trkpt lat="36.763136362473" lon="-3.859407465898">
        <ele>105.4</ele>
        <time>2019-01-11T15:22:27Z</time>
      </trkpt>
      <trkpt lat="36.763141894527" lon="-3.859380727637">
        <ele>105.6</ele>
        <time>2019-01-11T15:22:28Z</time>
      </trkpt>
      <trkpt lat="36.76316678877" lon="-3.859267655806">
        <ele>106.6</ele>
        <time>2019-01-11T15:22:32Z</time>
      </trkpt>
      <trkpt lat="36.76318606714" lon="-3.859132791035">
        <ele>107.2</ele>
        <time>2019-01-11T15:22:38Z</time>
      </trkpt>
      <trkpt lat="36.763172069367" lon="-3.859168330291">
        <ele>107.6</ele>
        <time>2019-01-11T15:22:43Z</time>
      </trkpt>
      <trkpt lat="36.763162514001" lon="-3.859231194541">
        <ele>107.6</ele>
        <time>2019-01-11T15:22:45Z</time>
      </trkpt>
      <trkpt lat="36.763159831793" lon="-3.859269667462">
        <ele>107.6</ele>
        <time>2019-01-11T15:22:46Z</time>
      </trkpt>
      <trkpt lat="36.76314918678" lon="-3.859487010129">
        <ele>106.4</ele>
        <time>2019-01-11T15:22:50Z</time>
      </trkpt>
      <trkpt lat="36.763138457948" lon="-3.8596721663">
        <ele>105.4</ele>
        <time>2019-01-11T15:22:53Z</time>
      </trkpt>
      <trkpt lat="36.763123538166" lon="-3.86000241316">
        <ele>104.8</ele>
        <time>2019-01-11T15:22:59Z</time>
      </trkpt>
      <trkpt lat="36.763097051362" lon="-3.860249763029">
        <ele>104.4</ele>
        <time>2019-01-11T15:23:04Z</time>
      </trkpt>
      <trkpt lat="36.76305614769" lon="-3.860499627468">
        <ele>103.8</ele>
        <time>2019-01-11T15:23:10Z</time>
      </trkpt>
      <trkpt lat="36.763018932054" lon="-3.860704229647">
        <ele>103.4</ele>
        <time>2019-01-11T15:23:15Z</time>
      </trkpt>
      <trkpt lat="36.76294550661" lon="-3.860989381885">
        <ele>103</ele>
        <time>2019-01-11T15:23:21Z</time>
      </trkpt>
      <trkpt lat="36.762890940441" lon="-3.861274617942">
        <ele>102.8</ele>
        <time>2019-01-11T15:23:27Z</time>
      </trkpt>
      <trkpt lat="36.762896472495" lon="-3.861405124125">
        <ele>102.2</ele>
        <time>2019-01-11T15:23:30Z</time>
      </trkpt>
      <trkpt lat="36.76290108254" lon="-3.861591956676">
        <ele>102.6</ele>
        <time>2019-01-11T15:23:36Z</time>
      </trkpt>
      <trkpt lat="36.762822627956" lon="-3.861684241395">
        <ele>101.8</ele>
        <time>2019-01-11T15:23:42Z</time>
      </trkpt>
      <trkpt lat="36.762812402038" lon="-3.861685833956">
        <ele>101.8</ele>
        <time>2019-01-11T15:23:43Z</time>
      </trkpt>
      <trkpt lat="36.762805864156" lon="-3.861677787332">
        <ele>102.6</ele>
        <time>2019-01-11T15:23:45Z</time>
      </trkpt>
      <trkpt lat="36.762774599669" lon="-3.861602601689">
        <ele>102.6</ele>
        <time>2019-01-11T15:23:49Z</time>
      </trkpt>
      <trkpt lat="36.76277786861" lon="-3.861446949806">
        <ele>102</ele>
        <time>2019-01-11T15:23:55Z</time>
      </trkpt>
      <trkpt lat="36.762778287705" lon="-3.861415182405">
        <ele>101.6</ele>
        <time>2019-01-11T15:23:57Z</time>
      </trkpt>
      <trkpt lat="36.762768229425" lon="-3.861398502424">
        <ele>101.4</ele>
        <time>2019-01-11T15:23:59Z</time>
      </trkpt>
      <trkpt lat="36.76275942843" lon="-3.861393892379">
        <ele>101.2</ele>
        <time>2019-01-11T15:24:00Z</time>
      </trkpt>
      <trkpt lat="36.762715339636" lon="-3.861449296738">
        <ele>100.2</ele>
        <time>2019-01-11T15:24:06Z</time>
      </trkpt>
      <trkpt lat="36.76270410789" lon="-3.861426665608">
        <ele>100.4</ele>
        <time>2019-01-11T15:24:10Z</time>
      </trkpt>
      <trkpt lat="36.762700168397" lon="-3.861403950659">
        <ele>100.2</ele>
        <time>2019-01-11T15:24:12Z</time>
      </trkpt>
      <trkpt lat="36.762694133429" lon="-3.861388025049">
        <ele>100.2</ele>
        <time>2019-01-11T15:24:15Z</time>
      </trkpt>
      <trkpt lat="36.762689774841" lon="-3.861386348669">
        <ele>100</ele>
        <time>2019-01-11T15:24:16Z</time>
      </trkpt>
      <trkpt lat="36.762647278608" lon="-3.8613653101">
        <ele>100</ele>
        <time>2019-01-11T15:24:19Z</time>
      </trkpt>
      <trkpt lat="36.762482658092" lon="-3.861245951844">
        <ele>99.2</ele>
        <time>2019-01-11T15:24:25Z</time>
      </trkpt>
      <trkpt lat="36.762445274818" lon="-3.861226254379">
        <ele>99</ele>
        <time>2019-01-11T15:24:26Z</time>
      </trkpt>
      <trkpt lat="36.762325162191" lon="-3.86115073346">
        <ele>97.8</ele>
        <time>2019-01-11T15:24:29Z</time>
      </trkpt>
      <trkpt lat="36.762284761433" lon="-3.861118463145">
        <ele>97.6</ele>
        <time>2019-01-11T15:24:30Z</time>
      </trkpt>
      <trkpt lat="36.762212760912" lon="-3.861030285557">
        <ele>97.4</ele>
        <time>2019-01-11T15:24:32Z</time>
      </trkpt>
      <trkpt lat="36.762166576643" lon="-3.860918638649">
        <ele>97</ele>
        <time>2019-01-11T15:24:34Z</time>
      </trkpt>
      <trkpt lat="36.762157775648" lon="-3.86086071972">
        <ele>96.2</ele>
        <time>2019-01-11T15:24:35Z</time>
      </trkpt>
      <trkpt lat="36.762163140064" lon="-3.860728788614">
        <ele>97.8</ele>
        <time>2019-01-11T15:24:38Z</time>
      </trkpt>
      <trkpt lat="36.762173701258" lon="-3.86066458326">
        <ele>99.6</ele>
        <time>2019-01-11T15:24:40Z</time>
      </trkpt>
      <trkpt lat="36.762176215828" lon="-3.860632564402">
        <ele>101</ele>
        <time>2019-01-11T15:24:41Z</time>
      </trkpt>
      <trkpt lat="36.762176970199" lon="-3.860451012448">
        <ele>100.8</ele>
        <time>2019-01-11T15:24:47Z</time>
      </trkpt>
      <trkpt lat="36.762204462831" lon="-3.860282284801">
        <ele>101.4</ele>
        <time>2019-01-11T15:24:53Z</time>
      </trkpt>
      <trkpt lat="36.762209072876" lon="-3.860230568478">
        <ele>102</ele>
        <time>2019-01-11T15:24:55Z</time>
      </trkpt>
      <trkpt lat="36.76223555968" lon="-3.860045831402">
        <ele>102.6</ele>
        <time>2019-01-11T15:25:01Z</time>
      </trkpt>
      <trkpt lat="36.762239247716" lon="-3.860020182788">
        <ele>103</ele>
        <time>2019-01-11T15:25:02Z</time>
      </trkpt>
      <trkpt lat="36.762250060367" lon="-3.859849694942">
        <ele>103</ele>
        <time>2019-01-11T15:25:08Z</time>
      </trkpt>
      <trkpt lat="36.762266237434" lon="-3.859670909015">
        <ele>103.4</ele>
        <time>2019-01-11T15:25:14Z</time>
      </trkpt>
      <trkpt lat="36.762268835823" lon="-3.859615001742">
        <ele>104.2</ele>
        <time>2019-01-11T15:25:16Z</time>
      </trkpt>
      <trkpt lat="36.762275373705" lon="-3.859562782505">
        <ele>105.4</ele>
        <time>2019-01-11T15:25:18Z</time>
      </trkpt>
      <trkpt lat="36.762293310971" lon="-3.859388690442">
        <ele>104.8</ele>
        <time>2019-01-11T15:25:24Z</time>
      </trkpt>
      <trkpt lat="36.762317367024" lon="-3.85922457284">
        <ele>106</ele>
        <time>2019-01-11T15:25:30Z</time>
      </trkpt>
      <trkpt lat="36.762315020092" lon="-3.85911393176">
        <ele>106.4</ele>
        <time>2019-01-11T15:25:34Z</time>
      </trkpt>
      <trkpt lat="36.76231015859" lon="-3.858951155262">
        <ele>107.2</ele>
        <time>2019-01-11T15:25:40Z</time>
      </trkpt>
      <trkpt lat="36.762314014264" lon="-3.858922656802">
        <ele>106.6</ele>
        <time>2019-01-11T15:25:41Z</time>
      </trkpt>
      <trkpt lat="36.762309571857" lon="-3.85876608291">
        <ele>106.6</ele>
        <time>2019-01-11T15:25:47Z</time>
      </trkpt>
      <trkpt lat="36.762311499694" lon="-3.858708583076">
        <ele>106.2</ele>
        <time>2019-01-11T15:25:53Z</time>
      </trkpt>
      <trkpt lat="36.762321390336" lon="-3.858756192268">
        <ele>106.2</ele>
        <time>2019-01-11T15:25:59Z</time>
      </trkpt>
      <trkpt lat="36.762337902679" lon="-3.858893152514">
        <ele>105.8</ele>
        <time>2019-01-11T15:26:05Z</time>
      </trkpt>
      <trkpt lat="36.762317786119" lon="-3.859126588429">
        <ele>105.8</ele>
        <time>2019-01-11T15:26:11Z</time>
      </trkpt>
      <trkpt lat="36.762306302916" lon="-3.859278217">
        <ele>105</ele>
        <time>2019-01-11T15:26:14Z</time>
      </trkpt>
      <trkpt lat="36.762281408673" lon="-3.859604189091">
        <ele>104.4</ele>
        <time>2019-01-11T15:26:20Z</time>
      </trkpt>
      <trkpt lat="36.762281408673" lon="-3.859711980325">
        <ele>103.4</ele>
        <time>2019-01-11T15:26:22Z</time>
      </trkpt>
      <trkpt lat="36.76227076366" lon="-3.859868805674">
        <ele>101</ele>
        <time>2019-01-11T15:26:25Z</time>
      </trkpt>
      <trkpt lat="36.762249138358" lon="-3.860091931852">
        <ele>100</ele>
        <time>2019-01-11T15:26:29Z</time>
      </trkpt>
      <trkpt lat="36.762228099789" lon="-3.86040642074">
        <ele>99.2</ele>
        <time>2019-01-11T15:26:35Z</time>
      </trkpt>
      <trkpt lat="36.762223657382" lon="-3.860455538674">
        <ele>99</ele>
        <time>2019-01-11T15:26:36Z</time>
      </trkpt>
      <trkpt lat="36.76221041398" lon="-3.860652764781">
        <ele>97.8</ele>
        <time>2019-01-11T15:26:40Z</time>
      </trkpt>
      <trkpt lat="36.762208653781" lon="-3.860701798896">
        <ele>96.6</ele>
        <time>2019-01-11T15:26:41Z</time>
      </trkpt>
      <trkpt lat="36.762194153094" lon="-3.860977060492">
        <ele>95.6</ele>
        <time>2019-01-11T15:26:47Z</time>
      </trkpt>
      <trkpt lat="36.762173449801" lon="-3.86112810233">
        <ele>95.4</ele>
        <time>2019-01-11T15:26:53Z</time>
      </trkpt>
      <trkpt lat="36.762166409005" lon="-3.861128689063">
        <ele>95.4</ele>
        <time>2019-01-11T15:26:54Z</time>
      </trkpt>
      <trkpt lat="36.76215425525" lon="-3.860967672764">
        <ele>95.8</ele>
        <time>2019-01-11T15:27:00Z</time>
      </trkpt>
      <trkpt lat="36.762156686001" lon="-3.860929283662">
        <ele>97</ele>
        <time>2019-01-11T15:27:01Z</time>
      </trkpt>
      <trkpt lat="36.762182418434" lon="-3.860742954025">
        <ele>96.2</ele>
        <time>2019-01-11T15:27:07Z</time>
      </trkpt>
      <trkpt lat="36.762184094814" lon="-3.860717808325">
        <ele>95.6</ele>
        <time>2019-01-11T15:27:08Z</time>
      </trkpt>
      <trkpt lat="36.762193398723" lon="-3.860540782597">
        <ele>95</ele>
        <time>2019-01-11T15:27:14Z</time>
      </trkpt>
      <trkpt lat="36.762202199718" lon="-3.860360404109">
        <ele>96</ele>
        <time>2019-01-11T15:27:20Z</time>
      </trkpt>
      <trkpt lat="36.762208067048" lon="-3.860307681958">
        <ele>96.8</ele>
        <time>2019-01-11T15:27:22Z</time>
      </trkpt>
      <trkpt lat="36.762220807536" lon="-3.860149766962">
        <ele>97.2</ele>
        <time>2019-01-11T15:27:28Z</time>
      </trkpt>
      <trkpt lat="36.762239499173" lon="-3.860014315458">
        <ele>98</ele>
        <time>2019-01-11T15:27:33Z</time>
      </trkpt>
      <trkpt lat="36.762251904385" lon="-3.859864447086">
        <ele>98.8</ele>
        <time>2019-01-11T15:27:39Z</time>
      </trkpt>
      <trkpt lat="36.762253748403" lon="-3.85980795308">
        <ele>99</ele>
        <time>2019-01-11T15:27:41Z</time>
      </trkpt>
      <trkpt lat="36.76225651443" lon="-3.859739724414">
        <ele>97.6</ele>
        <time>2019-01-11T15:27:44Z</time>
      </trkpt>
      <trkpt lat="36.762267913814" lon="-3.859581306504">
        <ele>98.2</ele>
        <time>2019-01-11T15:27:50Z</time>
      </trkpt>
      <trkpt lat="36.762285264347" lon="-3.859427666277">
        <ele>98.4</ele>
        <time>2019-01-11T15:27:56Z</time>
      </trkpt>
      <trkpt lat="36.762288114193" lon="-3.859404280776">
        <ele>98.6</ele>
        <time>2019-01-11T15:27:57Z</time>
      </trkpt>
      <trkpt lat="36.762318121395" lon="-3.859243767391">
        <ele>99.4</ele>
        <time>2019-01-11T15:28:03Z</time>
      </trkpt>
      <trkpt lat="36.762320133051" lon="-3.859139999469">
        <ele>99.6</ele>
        <time>2019-01-11T15:28:07Z</time>
      </trkpt>
      <trkpt lat="36.762330526607" lon="-3.858989712002">
        <ele>100.6</ele>
        <time>2019-01-11T15:28:13Z</time>
      </trkpt>
      <trkpt lat="36.762320468327" lon="-3.8589094134">
        <ele>100.8</ele>
        <time>2019-01-11T15:28:16Z</time>
      </trkpt>
      <trkpt lat="36.762299010663" lon="-3.858774297172">
        <ele>101.4</ele>
        <time>2019-01-11T15:28:22Z</time>
      </trkpt>
      <trkpt lat="36.762306554373" lon="-3.858751246947">
        <ele>101.8</ele>
        <time>2019-01-11T15:28:28Z</time>
      </trkpt>
      <trkpt lat="36.76231099678" lon="-3.858848896082">
        <ele>101.8</ele>
        <time>2019-01-11T15:28:32Z</time>
      </trkpt>
      <trkpt lat="36.762313678988" lon="-3.859077302857">
        <ele>101</ele>
        <time>2019-01-11T15:28:38Z</time>
      </trkpt>
      <trkpt lat="36.762296160817" lon="-3.859373183927">
        <ele>99.8</ele>
        <time>2019-01-11T15:28:44Z</time>
      </trkpt>
      <trkpt lat="36.762295406446" lon="-3.859422301861">
        <ele>99.6</ele>
        <time>2019-01-11T15:28:45Z</time>
      </trkpt>
      <trkpt lat="36.7622757928" lon="-3.859729079401">
        <ele>97.6</ele>
        <time>2019-01-11T15:28:51Z</time>
      </trkpt>
      <trkpt lat="36.762255508602" lon="-3.860025379566">
        <ele>96</ele>
        <time>2019-01-11T15:28:57Z</time>
      </trkpt>
      <trkpt lat="36.762238828621" lon="-3.860311202356">
        <ele>95.6</ele>
        <time>2019-01-11T15:29:03Z</time>
      </trkpt>
      <trkpt lat="36.762212844731" lon="-3.86058076426">
        <ele>95.4</ele>
        <time>2019-01-11T15:29:09Z</time>
      </trkpt>
      <trkpt lat="36.762210749256" lon="-3.860628708728">
        <ele>95</ele>
        <time>2019-01-11T15:29:10Z</time>
      </trkpt>
      <trkpt lat="36.762204379012" lon="-3.860728620976">
        <ele>96.6</ele>
        <time>2019-01-11T15:29:12Z</time>
      </trkpt>
      <trkpt lat="36.762197673492" lon="-3.861032883946">
        <ele>95.6</ele>
        <time>2019-01-11T15:29:18Z</time>
      </trkpt>
      <trkpt lat="36.762173282163" lon="-3.861211669873">
        <ele>95.6</ele>
        <time>2019-01-11T15:29:24Z</time>
      </trkpt>
      <trkpt lat="36.762160374037" lon="-3.861209742036">
        <ele>95.4</ele>
        <time>2019-01-11T15:29:25Z</time>
      </trkpt>
      <trkpt lat="36.762148220282" lon="-3.861141681008">
        <ele>95.4</ele>
        <time>2019-01-11T15:29:28Z</time>
      </trkpt>
      <trkpt lat="36.762165319358" lon="-3.860914447699">
        <ele>97</ele>
        <time>2019-01-11T15:29:34Z</time>
      </trkpt>
      <trkpt lat="36.762189040135" lon="-3.860706911855">
        <ele>96.6</ele>
        <time>2019-01-11T15:29:40Z</time>
      </trkpt>
      <trkpt lat="36.762200607157" lon="-3.860534244715">
        <ele>98</ele>
        <time>2019-01-11T15:29:46Z</time>
      </trkpt>
      <trkpt lat="36.762218041509" lon="-3.860347915078">
        <ele>98.2</ele>
        <time>2019-01-11T15:29:52Z</time>
      </trkpt>
      <trkpt lat="36.762223741201" lon="-3.860208188805">
        <ele>99</ele>
        <time>2019-01-11T15:29:57Z</time>
      </trkpt>
      <trkpt lat="36.762235811137" lon="-3.86008874673">
        <ele>100</ele>
        <time>2019-01-11T15:30:01Z</time>
      </trkpt>
      <trkpt lat="36.762245031227" lon="-3.859923204205">
        <ele>101</ele>
        <time>2019-01-11T15:30:07Z</time>
      </trkpt>
      <trkpt lat="36.762245282684" lon="-3.859838211739">
        <ele>101.2</ele>
        <time>2019-01-11T15:30:10Z</time>
      </trkpt>
      <trkpt lat="36.762251988204" lon="-3.859704939529">
        <ele>103.4</ele>
        <time>2019-01-11T15:30:15Z</time>
      </trkpt>
      <trkpt lat="36.762262297941" lon="-3.859549706741">
        <ele>104.2</ele>
        <time>2019-01-11T15:30:21Z</time>
      </trkpt>
      <trkpt lat="36.762281408673" lon="-3.859420206386">
        <ele>104.6</ele>
        <time>2019-01-11T15:30:26Z</time>
      </trkpt>
      <trkpt lat="36.762301944328" lon="-3.859253825671">
        <ele>105.6</ele>
        <time>2019-01-11T15:30:32Z</time>
      </trkpt>
      <trkpt lat="36.762303620708" lon="-3.859227003591">
        <ele>105.8</ele>
        <time>2019-01-11T15:30:33Z</time>
      </trkpt>
      <trkpt lat="36.762306554373" lon="-3.859051989519">
        <ele>106.6</ele>
        <time>2019-01-11T15:30:39Z</time>
      </trkpt>
      <trkpt lat="36.762306135278" lon="-3.858917460024">
        <ele>106.6</ele>
        <time>2019-01-11T15:30:44Z</time>
      </trkpt>
      <trkpt lat="36.762306889649" lon="-3.858892565781">
        <ele>106.8</ele>
        <time>2019-01-11T15:30:45Z</time>
      </trkpt>
      <trkpt lat="36.762308901305" lon="-3.858765412358">
        <ele>106.6</ele>
        <time>2019-01-11T15:30:50Z</time>
      </trkpt>
      <trkpt lat="36.762303955984" lon="-3.858716462062">
        <ele>106.6</ele>
        <time>2019-01-11T15:30:56Z</time>
      </trkpt>
      <trkpt lat="36.762305632364" lon="-3.858740518115">
        <ele>106.6</ele>
        <time>2019-01-11T15:30:58Z</time>
      </trkpt>
      <trkpt lat="36.762317283205" lon="-3.85882056526">
        <ele>106.6</ele>
        <time>2019-01-11T15:31:01Z</time>
      </trkpt>
      <trkpt lat="36.762318121395" lon="-3.859036399185">
        <ele>106.2</ele>
        <time>2019-01-11T15:31:07Z</time>
      </trkpt>
      <trkpt lat="36.762312505522" lon="-3.859112925932">
        <ele>105.6</ele>
        <time>2019-01-11T15:31:09Z</time>
      </trkpt>
      <trkpt lat="36.762302531061" lon="-3.859288862013">
        <ele>104.6</ele>
        <time>2019-01-11T15:31:13Z</time>
      </trkpt>
      <trkpt lat="36.762277050085" lon="-3.85959756739">
        <ele>104.4</ele>
        <time>2019-01-11T15:31:19Z</time>
      </trkpt>
      <trkpt lat="36.762271518031" lon="-3.859710052488">
        <ele>103.4</ele>
        <time>2019-01-11T15:31:21Z</time>
      </trkpt>
      <trkpt lat="36.762259364276" lon="-3.859951786484">
        <ele>102.2</ele>
        <time>2019-01-11T15:31:25Z</time>
      </trkpt>
      <trkpt lat="36.762252072023" lon="-3.860014483096">
        <ele>100.4</ele>
        <time>2019-01-11T15:31:26Z</time>
      </trkpt>
      <trkpt lat="36.762234553852" lon="-3.860201986199">
        <ele>99.4</ele>
        <time>2019-01-11T15:31:29Z</time>
      </trkpt>
      <trkpt lat="36.762207731772" lon="-3.860590571083">
        <ele>98.8</ele>
        <time>2019-01-11T15:31:35Z</time>
      </trkpt>
      <trkpt lat="36.762197924949" lon="-3.860725268216">
        <ele>96.6</ele>
        <time>2019-01-11T15:31:37Z</time>
      </trkpt>
      <trkpt lat="36.762191219429" lon="-3.860862479919">
        <ele>95.6</ele>
        <time>2019-01-11T15:31:39Z</time>
      </trkpt>
      <trkpt lat="36.762211671265" lon="-3.860989549523">
        <ele>95.8</ele>
        <time>2019-01-11T15:31:41Z</time>
      </trkpt>
      <trkpt lat="36.762317115567" lon="-3.861171939667">
        <ele>96.4</ele>
        <time>2019-01-11T15:31:47Z</time>
      </trkpt>
      <trkpt lat="36.762331280978" lon="-3.861186188897">
        <ele>96.8</ele>
        <time>2019-01-11T15:31:48Z</time>
      </trkpt>
      <trkpt lat="36.762420212937" lon="-3.861250897165">
        <ele>97.8</ele>
        <time>2019-01-11T15:31:53Z</time>
      </trkpt>
      <trkpt lat="36.762499421892" lon="-3.86130328404">
        <ele>99.2</ele>
        <time>2019-01-11T15:31:57Z</time>
      </trkpt>
      <trkpt lat="36.762541163754" lon="-3.861321053668">
        <ele>97.8</ele>
        <time>2019-01-11T15:31:59Z</time>
      </trkpt>
      <trkpt lat="36.762629928075" lon="-3.86136447191">
        <ele>98.6</ele>
        <time>2019-01-11T15:32:04Z</time>
      </trkpt>
      <trkpt lat="36.762622049089" lon="-3.861368495222">
        <ele>98.2</ele>
        <time>2019-01-11T15:32:07Z</time>
      </trkpt>
      <trkpt lat="36.762489028336" lon="-3.861276545779">
        <ele>98.8</ele>
        <time>2019-01-11T15:32:12Z</time>
      </trkpt>
      <trkpt lat="36.762270931298" lon="-3.861106477028">
        <ele>98.2</ele>
        <time>2019-01-11T15:32:17Z</time>
      </trkpt>
      <trkpt lat="36.762204295193" lon="-3.860993572835">
        <ele>97.8</ele>
        <time>2019-01-11T15:32:19Z</time>
      </trkpt>
      <trkpt lat="36.762183172805" lon="-3.860866167955">
        <ele>96.6</ele>
        <time>2019-01-11T15:32:21Z</time>
      </trkpt>
      <trkpt lat="36.76218191552" lon="-3.860806907922">
        <ele>95.4</ele>
        <time>2019-01-11T15:32:22Z</time>
      </trkpt>
      <trkpt lat="36.7621835919" lon="-3.860716383402">
        <ele>97</ele>
        <time>2019-01-11T15:32:24Z</time>
      </trkpt>
      <trkpt lat="36.762184010995" lon="-3.860681011784">
        <ele>98.4</ele>
        <time>2019-01-11T15:32:25Z</time>
      </trkpt>
      <trkpt lat="36.762189207773" lon="-3.86059249892">
        <ele>99.6</ele>
        <time>2019-01-11T15:32:28Z</time>
      </trkpt>
      <trkpt lat="36.762197422035" lon="-3.860532316878">
        <ele>98.4</ele>
        <time>2019-01-11T15:32:30Z</time>
      </trkpt>
      <trkpt lat="36.762211922722" lon="-3.860343891766">
        <ele>98.6</ele>
        <time>2019-01-11T15:32:36Z</time>
      </trkpt>
      <trkpt lat="36.762222316278" lon="-3.860223862958">
        <ele>99.4</ele>
        <time>2019-01-11T15:32:40Z</time>
      </trkpt>
      <trkpt lat="36.762231284911" lon="-3.860140295415">
        <ele>99.8</ele>
        <time>2019-01-11T15:32:43Z</time>
      </trkpt>
      <trkpt lat="36.762245785598" lon="-3.86002001515">
        <ele>101</ele>
        <time>2019-01-11T15:32:47Z</time>
      </trkpt>
      <trkpt lat="36.762264561054" lon="-3.859841229223">
        <ele>103</ele>
        <time>2019-01-11T15:32:53Z</time>
      </trkpt>
      <trkpt lat="36.762276379533" lon="-3.859677614535">
        <ele>103.8</ele>
        <time>2019-01-11T15:32:59Z</time>
      </trkpt>
      <trkpt lat="36.762278894103" lon="-3.8595715835">
        <ele>104.4</ele>
        <time>2019-01-11T15:33:03Z</time>
      </trkpt>
      <trkpt lat="36.762294903532" lon="-3.859410483382">
        <ele>104.4</ele>
        <time>2019-01-11T15:33:09Z</time>
      </trkpt>
      <trkpt lat="36.762307141106" lon="-3.859254244766">
        <ele>105.2</ele>
        <time>2019-01-11T15:33:15Z</time>
      </trkpt>
      <trkpt lat="36.762310493866" lon="-3.859229685799">
        <ele>105.4</ele>
        <time>2019-01-11T15:33:16Z</time>
      </trkpt>
      <trkpt lat="36.762315523006" lon="-3.859067412215">
        <ele>105.8</ele>
        <time>2019-01-11T15:33:22Z</time>
      </trkpt>
      <trkpt lat="36.762305297088" lon="-3.858945790846">
        <ele>106.6</ele>
        <time>2019-01-11T15:33:27Z</time>
      </trkpt>
      <trkpt lat="36.762301357595" lon="-3.858921734793">
        <ele>106.6</ele>
        <time>2019-01-11T15:33:28Z</time>
      </trkpt>
      <trkpt lat="36.762282414501" lon="-3.858772704611">
        <ele>106.6</ele>
        <time>2019-01-11T15:33:34Z</time>
      </trkpt>
      <trkpt lat="36.762281241035" lon="-3.858728112903">
        <ele>106.6</ele>
        <time>2019-01-11T15:33:40Z</time>
      </trkpt>
      <trkpt lat="36.762289790573" lon="-3.858758790657">
        <ele>106.8</ele>
        <time>2019-01-11T15:33:42Z</time>
      </trkpt>
      <trkpt lat="36.762303955984" lon="-3.859018713376">
        <ele>106.2</ele>
        <time>2019-01-11T15:33:50Z</time>
      </trkpt>
      <trkpt lat="36.762290964039" lon="-3.859254077128">
        <ele>105.6</ele>
        <time>2019-01-11T15:33:55Z</time>
      </trkpt>
      <trkpt lat="36.76227830737" lon="-3.859606116928">
        <ele>105.2</ele>
        <time>2019-01-11T15:34:01Z</time>
      </trkpt>
      <trkpt lat="36.762270260746" lon="-3.859733940903">
        <ele>104.4</ele>
        <time>2019-01-11T15:34:03Z</time>
      </trkpt>
      <trkpt lat="36.762261292113" lon="-3.859867883665">
        <ele>103</ele>
        <time>2019-01-11T15:34:05Z</time>
      </trkpt>
      <trkpt lat="36.762236481689" lon="-3.860191676462">
        <ele>102</ele>
        <time>2019-01-11T15:34:10Z</time>
      </trkpt>
      <trkpt lat="36.762206642125" lon="-3.860596941327">
        <ele>100.8</ele>
        <time>2019-01-11T15:34:16Z</time>
      </trkpt>
      <trkpt lat="36.762191387067" lon="-3.860821240971">
        <ele>99.8</ele>
        <time>2019-01-11T15:34:19Z</time>
      </trkpt>
      <trkpt lat="36.762195997112" lon="-3.860966583117">
        <ele>98.6</ele>
        <time>2019-01-11T15:34:21Z</time>
      </trkpt>
      <trkpt lat="36.762235978775" lon="-3.86107781093">
        <ele>98</ele>
        <time>2019-01-11T15:34:23Z</time>
      </trkpt>
      <trkpt lat="36.762285599623" lon="-3.861149140899">
        <ele>98</ele>
        <time>2019-01-11T15:34:26Z</time>
      </trkpt>
      <trkpt lat="36.762232374558" lon="-3.86118258468">
        <ele>98.2</ele>
        <time>2019-01-11T15:34:30Z</time>
      </trkpt>
      <trkpt lat="36.762182418434" lon="-3.86114235156">
        <ele>98.2</ele>
        <time>2019-01-11T15:34:32Z</time>
      </trkpt>
      <trkpt lat="36.762168672118" lon="-3.860916207898">
        <ele>97</ele>
        <time>2019-01-11T15:34:38Z</time>
      </trkpt>
      <trkpt lat="36.762190967972" lon="-3.860714455565">
        <ele>96.6</ele>
        <time>2019-01-11T15:34:44Z</time>
      </trkpt>
      <trkpt lat="36.762199936605" lon="-3.860508931377">
        <ele>96.4</ele>
        <time>2019-01-11T15:34:50Z</time>
      </trkpt>
      <trkpt lat="36.762205133383" lon="-3.860400469591">
        <ele>96</ele>
        <time>2019-01-11T15:34:53Z</time>
      </trkpt>
      <trkpt lat="36.762214940206" lon="-3.860198968715">
        <ele>96.6</ele>
        <time>2019-01-11T15:34:59Z</time>
      </trkpt>
      <trkpt lat="36.762233631843" lon="-3.860036024579">
        <ele>97.4</ele>
        <time>2019-01-11T15:35:05Z</time>
      </trkpt>
      <trkpt lat="36.762237403698" lon="-3.860046501954">
        <ele>97.4</ele>
        <time>2019-01-11T15:35:08Z</time>
      </trkpt>
      <trkpt lat="36.762237738974" lon="-3.860103582693">
        <ele>97.2</ele>
        <time>2019-01-11T15:35:11Z</time>
      </trkpt>
      <trkpt lat="36.762236816965" lon="-3.860252445237">
        <ele>95.8</ele>
        <time>2019-01-11T15:35:16Z</time>
      </trkpt>
      <trkpt lat="36.762216029853" lon="-3.860453946113">
        <ele>95.8</ele>
        <time>2019-01-11T15:35:22Z</time>
      </trkpt>
      <trkpt lat="36.762229608531" lon="-3.860643460872">
        <ele>95.2</ele>
        <time>2019-01-11T15:35:28Z</time>
      </trkpt>
      <trkpt lat="36.762203289365" lon="-3.860818642582">
        <ele>94.6</ele>
        <time>2019-01-11T15:35:34Z</time>
      </trkpt>
      <trkpt lat="36.762201864442" lon="-3.86098561003">
        <ele>94</ele>
        <time>2019-01-11T15:35:40Z</time>
      </trkpt>
      <trkpt lat="36.762198930777" lon="-3.860996087405">
        <ele>93.8</ele>
        <time>2019-01-11T15:35:41Z</time>
      </trkpt>
      <trkpt lat="36.762172360154" lon="-3.860982592546">
        <ele>93.6</ele>
        <time>2019-01-11T15:35:43Z</time>
      </trkpt>
      <trkpt lat="36.762184178633" lon="-3.860811853243">
        <ele>93.6</ele>
        <time>2019-01-11T15:35:49Z</time>
      </trkpt>
      <trkpt lat="36.762185687375" lon="-3.860755778332">
        <ele>94</ele>
        <time>2019-01-11T15:35:51Z</time>
      </trkpt>
    </trkseg>
  </trk>
</gpx>